SIA317 EGLL-WSSS
Flight info
| Callsign | SIA317 |
|---|---|
| Flight time | 12h 1m |
| Altitude | 33000 |
| Route | DET L6 DVR L9 KONAN UL607 FERDI DCT MATUG DCT GUBAX DCT KOMIB L984 SULUS Z650 VEMUT DCT DITIS/N0487F350 DCT ERGOM DCT BUDOP DCT UDROS UM859 KARDE UL851 TBN UR317 REBLO M11 LUSAL N199 BAKUV N701 LARGI/N0493F370 B701 KRS A240 INRAK B449 DOLOS B475 RUBAD A846 RANAH L750 ZB G202 RK P628 IBANI L510 ELBAB/N0495F390 L510 GIVAL P628 VPL Y503 RINBA Y507 MAKNA Y511 TOPOR A464 ARAMA DCT TEBUN TEBUN1B |
| Aircraft | A388/J-SADE2E3FGHIJ3J4J5M1RWXY/LB1D1 |
Departure
| Time | 2026-05-06 13:18 |
|---|---|
| Airport | London Heathrow Airport (EGLL) |
Arrival
| Time | 2026-05-07 01:20 |
|---|---|
| Airport | Singapore Changi Airport (WSSS) |
| Time | Latitude | Longitude | Altitude | Speed | Heading |
|---|---|---|---|---|---|
| 2026-05-06 12:27 | 51.46938 | -0.44180 | 92 ft | 0 kts | 269° |
| 2026-05-06 13:06 | 51.46938 | -0.44153 | 95 ft | 4 kts | 269° |
| 2026-05-06 13:06 | 51.46939 | -0.44118 | 94 ft | 4 kts | 263° |
| 2026-05-06 13:07 | 51.46946 | -0.44084 | 93 ft | 4 kts | 234° |
| 2026-05-06 13:07 | 51.46961 | -0.44063 | 93 ft | 4 kts | 199° |
| 2026-05-06 13:07 | 51.46984 | -0.44059 | 93 ft | 4 kts | 179° |
| 2026-05-06 13:07 | 51.46993 | -0.44059 | 92 ft | 1 kts | 179° |
| 2026-05-06 13:10 | 51.46992 | -0.44059 | 92 ft | 1 kts | 179° |
| 2026-05-06 13:10 | 51.46968 | -0.44059 | 92 ft | 6 kts | 180° |
| 2026-05-06 13:10 | 51.46912 | -0.44058 | 94 ft | 10 kts | 179° |
| 2026-05-06 13:10 | 51.46823 | -0.44058 | 92 ft | 15 kts | 180° |
| 2026-05-06 13:11 | 51.46761 | -0.44111 | 95 ft | 10 kts | 253° |
| 2026-05-06 13:11 | 51.46753 | -0.44248 | 94 ft | 15 kts | 270° |
| 2026-05-06 13:11 | 51.46753 | -0.44431 | 92 ft | 17 kts | 270° |
| 2026-05-06 13:11 | 51.46752 | -0.44628 | 92 ft | 18 kts | 269° |
| 2026-05-06 13:12 | 51.46751 | -0.44830 | 94 ft | 19 kts | 270° |
| 2026-05-06 13:12 | 51.46751 | -0.45053 | 93 ft | 21 kts | 269° |
| 2026-05-06 13:12 | 51.46750 | -0.45290 | 94 ft | 21 kts | 270° |
| 2026-05-06 13:12 | 51.46749 | -0.45524 | 96 ft | 22 kts | 270° |
| 2026-05-06 13:13 | 51.46749 | -0.45768 | 95 ft | 21 kts | 270° |
| 2026-05-06 13:13 | 51.46748 | -0.46019 | 95 ft | 24 kts | 270° |
| 2026-05-06 13:13 | 51.46747 | -0.46302 | 95 ft | 25 kts | 270° |
| 2026-05-06 13:13 | 51.46748 | -0.46576 | 95 ft | 24 kts | 269° |
| 2026-05-06 13:14 | 51.46747 | -0.46840 | 95 ft | 24 kts | 270° |
| 2026-05-06 13:14 | 51.46746 | -0.47102 | 95 ft | 23 kts | 270° |
| 2026-05-06 13:14 | 51.46745 | -0.47360 | 95 ft | 23 kts | 270° |
| 2026-05-06 13:14 | 51.46744 | -0.47610 | 92 ft | 23 kts | 270° |
| 2026-05-06 13:15 | 51.46744 | -0.47859 | 92 ft | 22 kts | 269° |
| 2026-05-06 13:15 | 51.46743 | -0.48108 | 93 ft | 22 kts | 270° |
| 2026-05-06 13:15 | 51.46742 | -0.48353 | 92 ft | 22 kts | 269° |
| 2026-05-06 13:15 | 51.46741 | -0.48599 | 92 ft | 22 kts | 270° |
| 2026-05-06 13:16 | 51.46723 | -0.48722 | 96 ft | 7 kts | 204° |
| 2026-05-06 13:16 | 51.46672 | -0.48745 | 95 ft | 9 kts | 188° |
| 2026-05-06 13:16 | 51.46594 | -0.48773 | 95 ft | 14 kts | 197° |
| 2026-05-06 13:16 | 51.46498 | -0.48748 | 94 ft | 14 kts | 126° |
| 2026-05-06 13:17 | 51.46478 | -0.48610 | 95 ft | 10 kts | 91° |
| 2026-05-06 13:17 | 51.46478 | -0.48537 | 96 ft | 25 kts | 90° |
| 2026-05-06 13:17 | 51.46480 | -0.47859 | 95 ft | 96 kts | 90° |
| 2026-05-06 13:17 | 51.46489 | -0.46499 | 96 ft | 145 kts | 88° |
| 2026-05-06 13:18 | 51.46489 | -0.44755 | 333 ft | 159 kts | 90° |
| 2026-05-06 13:18 | 51.46462 | -0.43004 | 781 ft | 163 kts | 85° |
| 2026-05-06 13:18 | 51.46433 | -0.41109 | 1189 ft | 173 kts | 101° |
| 2026-05-06 13:18 | 51.45868 | -0.39382 | 1579 ft | 179 kts | 124° |
| 2026-05-06 13:19 | 51.45084 | -0.37786 | 1825 ft | 187 kts | 125° |
| 2026-05-06 13:19 | 51.44310 | -0.36018 | 1956 ft | 198 kts | 116° |
| 2026-05-06 13:19 | 51.43717 | -0.33980 | 2047 ft | 209 kts | 106° |
| 2026-05-06 13:19 | 51.43271 | -0.31699 | 2153 ft | 218 kts | 102° |
| 2026-05-06 13:20 | 51.42899 | -0.29301 | 2249 ft | 236 kts | 99° |
| 2026-05-06 13:20 | 51.42536 | -0.26629 | 2503 ft | 254 kts | 99° |
| 2026-05-06 13:20 | 51.42162 | -0.23803 | 3056 ft | 260 kts | 99° |
| 2026-05-06 13:20 | 51.41768 | -0.20965 | 3786 ft | 261 kts | 100° |
| 2026-05-06 13:21 | 51.41364 | -0.18096 | 4456 ft | 265 kts | 100° |
| 2026-05-06 13:21 | 51.40971 | -0.15217 | 5182 ft | 267 kts | 99° |
| 2026-05-06 13:21 | 51.40573 | -0.12273 | 5871 ft | 269 kts | 99° |
| 2026-05-06 13:21 | 51.40171 | -0.09343 | 6516 ft | 272 kts | 100° |
| 2026-05-06 13:22 | 51.39758 | -0.06353 | 7089 ft | 276 kts | 100° |
| 2026-05-06 13:22 | 51.39340 | -0.03330 | 7659 ft | 281 kts | 100° |
| 2026-05-06 13:22 | 51.38912 | -0.00257 | 8278 ft | 284 kts | 100° |
| 2026-05-06 13:23 | 51.38724 | 0.01096 | 8515 ft | 287 kts | 100° |
| 2026-05-06 13:23 | 51.38278 | 0.04289 | 9123 ft | 291 kts | 101° |
| 2026-05-06 13:23 | 51.37832 | 0.07470 | 9747 ft | 295 kts | 101° |
| 2026-05-06 13:23 | 51.37383 | 0.10691 | 10228 ft | 302 kts | 101° |
| 2026-05-06 13:24 | 51.36916 | 0.14041 | 10414 ft | 320 kts | 101° |
| 2026-05-06 13:24 | 51.36411 | 0.17655 | 10558 ft | 336 kts | 101° |
| 2026-05-06 13:24 | 51.35893 | 0.21337 | 10800 ft | 348 kts | 101° |
| 2026-05-06 13:24 | 51.35355 | 0.25142 | 11298 ft | 351 kts | 102° |
| 2026-05-06 13:25 | 51.34813 | 0.28961 | 11793 ft | 355 kts | 102° |
| 2026-05-06 13:25 | 51.34261 | 0.32842 | 12336 ft | 358 kts | 102° |
| 2026-05-06 13:25 | 51.33705 | 0.36743 | 12838 ft | 362 kts | 102° |
| 2026-05-06 13:25 | 51.33149 | 0.40632 | 13386 ft | 364 kts | 102° |
| 2026-05-06 13:26 | 51.32578 | 0.44613 | 13866 ft | 368 kts | 102° |
| 2026-05-06 13:26 | 51.32005 | 0.48598 | 14351 ft | 370 kts | 102° |
| 2026-05-06 13:26 | 51.31427 | 0.52622 | 14812 ft | 372 kts | 102° |
| 2026-05-06 13:26 | 51.30843 | 0.56683 | 15262 ft | 374 kts | 103° |
| 2026-05-06 13:27 | 51.30237 | 0.60720 | 15749 ft | 377 kts | 106° |
| 2026-05-06 13:27 | 51.29497 | 0.64703 | 16206 ft | 378 kts | 106° |
| 2026-05-06 13:27 | 51.28749 | 0.68766 | 16650 ft | 381 kts | 106° |
| 2026-05-06 13:27 | 51.28002 | 0.72846 | 17070 ft | 384 kts | 106° |
| 2026-05-06 13:28 | 51.27249 | 0.76963 | 17526 ft | 386 kts | 107° |
| 2026-05-06 13:28 | 51.26488 | 0.81118 | 17975 ft | 389 kts | 107° |
| 2026-05-06 13:28 | 51.25725 | 0.85261 | 18386 ft | 391 kts | 107° |
| 2026-05-06 13:28 | 51.24954 | 0.89436 | 18743 ft | 393 kts | 107° |
| 2026-05-06 13:29 | 51.24180 | 0.93624 | 19123 ft | 395 kts | 107° |
| 2026-05-06 13:29 | 51.23407 | 0.97797 | 19497 ft | 397 kts | 107° |
| 2026-05-06 13:29 | 51.22620 | 1.02028 | 19873 ft | 399 kts | 107° |
| 2026-05-06 13:29 | 51.21828 | 1.06278 | 20233 ft | 401 kts | 107° |
| 2026-05-06 13:30 | 51.21029 | 1.10560 | 20618 ft | 402 kts | 107° |
| 2026-05-06 13:30 | 51.20225 | 1.14861 | 20980 ft | 404 kts | 108° |
| 2026-05-06 13:30 | 51.19418 | 1.19163 | 21322 ft | 407 kts | 108° |
| 2026-05-06 13:30 | 51.18602 | 1.23502 | 21677 ft | 409 kts | 108° |
| 2026-05-06 13:31 | 51.17799 | 1.27770 | 22018 ft | 411 kts | 108° |
| 2026-05-06 13:31 | 51.16970 | 1.32162 | 22355 ft | 412 kts | 108° |
| 2026-05-06 13:31 | 51.16286 | 1.36626 | 22694 ft | 416 kts | 100° |
| 2026-05-06 13:31 | 51.15988 | 1.41216 | 23022 ft | 418 kts | 94° |
| 2026-05-06 13:32 | 51.15792 | 1.45860 | 23349 ft | 421 kts | 95° |
| 2026-05-06 13:32 | 51.15575 | 1.50505 | 23675 ft | 422 kts | 95° |
| 2026-05-06 13:32 | 51.15348 | 1.55184 | 23969 ft | 424 kts | 95° |
| 2026-05-06 13:32 | 51.15114 | 1.59885 | 24247 ft | 426 kts | 95° |
| 2026-05-06 13:33 | 51.14879 | 1.64591 | 24565 ft | 427 kts | 95° |
| 2026-05-06 13:33 | 51.14647 | 1.69259 | 24860 ft | 428 kts | 95° |
| 2026-05-06 13:33 | 51.14410 | 1.74013 | 25165 ft | 430 kts | 95° |
| 2026-05-06 13:33 | 51.14170 | 1.78771 | 25481 ft | 431 kts | 95° |
| 2026-05-06 13:34 | 51.13928 | 1.83543 | 25792 ft | 433 kts | 95° |
| 2026-05-06 13:34 | 51.13683 | 1.88330 | 26119 ft | 435 kts | 95° |
| 2026-05-06 13:34 | 51.13444 | 1.93005 | 26433 ft | 437 kts | 96° |
| 2026-05-06 13:34 | 51.13191 | 1.97847 | 26772 ft | 439 kts | 95° |
| 2026-05-06 13:35 | 51.12937 | 2.02701 | 27127 ft | 440 kts | 95° |
| 2026-05-06 13:35 | 51.12678 | 2.07582 | 27459 ft | 443 kts | 95° |
| 2026-05-06 13:35 | 51.12417 | 2.12473 | 27804 ft | 445 kts | 95° |
| 2026-05-06 13:35 | 51.12152 | 2.17379 | 28176 ft | 446 kts | 96° |
| 2026-05-06 13:36 | 51.11751 | 2.24798 | 28709 ft | 449 kts | 95° |
| 2026-05-06 13:36 | 51.11269 | 2.33598 | 29362 ft | 452 kts | 96° |
| 2026-05-06 13:36 | 51.10715 | 2.43458 | 30049 ft | 456 kts | 96° |
| 2026-05-06 13:36 | 51.10139 | 2.53604 | 30673 ft | 460 kts | 96° |
| 2026-05-06 13:37 | 51.09525 | 2.63724 | 31278 ft | 464 kts | 99° |
| 2026-05-06 13:37 | 51.07920 | 2.73719 | 31865 ft | 466 kts | 108° |
| 2026-05-06 13:37 | 51.06111 | 2.83651 | 32464 ft | 470 kts | 107° |
| 2026-05-06 13:37 | 51.04298 | 2.93695 | 32976 ft | 476 kts | 107° |
| 2026-05-06 13:38 | 51.02415 | 3.03981 | 32929 ft | 490 kts | 107° |
| 2026-05-06 13:38 | 50.99222 | 3.21272 | 32920 ft | 490 kts | 107° |
| 2026-05-06 13:39 | 50.94711 | 3.45480 | 32898 ft | 488 kts | 108° |
| 2026-05-06 13:39 | 50.91475 | 3.62592 | 32892 ft | 487 kts | 108° |
| 2026-05-06 13:40 | 50.87367 | 3.86695 | 32874 ft | 486 kts | 106° |
| 2026-05-06 13:40 | 50.84443 | 4.03855 | 32870 ft | 486 kts | 106° |
| 2026-05-06 13:41 | 50.80865 | 4.24531 | 32872 ft | 487 kts | 107° |
| 2026-05-06 13:41 | 50.77247 | 4.45204 | 32886 ft | 487 kts | 107° |
| 2026-05-06 13:42 | 50.73599 | 4.65834 | 32890 ft | 487 kts | 107° |
| 2026-05-06 13:42 | 50.69912 | 4.86453 | 32875 ft | 487 kts | 107° |
| 2026-05-06 13:43 | 50.66198 | 5.06936 | 32881 ft | 488 kts | 107° |
| 2026-05-06 13:43 | 50.62454 | 5.27369 | 32880 ft | 487 kts | 107° |
| 2026-05-06 13:44 | 50.58667 | 5.47824 | 32868 ft | 487 kts | 108° |
| 2026-05-06 13:44 | 50.56726 | 5.58206 | 32868 ft | 487 kts | 108° |
| 2026-05-06 13:45 | 50.54807 | 5.68424 | 32860 ft | 488 kts | 108° |
| 2026-05-06 13:45 | 50.51913 | 5.83752 | 32842 ft | 489 kts | 108° |
| 2026-05-06 13:46 | 50.49960 | 5.94011 | 32835 ft | 491 kts | 108° |
| 2026-05-06 13:46 | 50.47995 | 6.04271 | 32837 ft | 491 kts | 108° |
| 2026-05-06 13:47 | 50.46012 | 6.14575 | 32829 ft | 492 kts | 108° |
| 2026-05-06 13:47 | 50.44027 | 6.24863 | 32823 ft | 493 kts | 108° |
| 2026-05-06 13:48 | 50.42047 | 6.35097 | 32811 ft | 494 kts | 107° |
| 2026-05-06 13:48 | 50.40853 | 6.47500 | 32804 ft | 496 kts | 98° |
| 2026-05-06 13:49 | 50.39220 | 6.68966 | 32794 ft | 496 kts | 99° |
| 2026-05-06 13:49 | 50.37519 | 6.90474 | 32795 ft | 497 kts | 99° |
| 2026-05-06 13:50 | 50.35790 | 7.11872 | 32797 ft | 499 kts | 99° |
| 2026-05-06 13:50 | 50.34003 | 7.33461 | 32795 ft | 501 kts | 100° |
| 2026-05-06 13:51 | 50.32208 | 7.54733 | 32807 ft | 502 kts | 100° |
| 2026-05-06 13:51 | 50.31271 | 7.65582 | 32803 ft | 503 kts | 100° |
| 2026-05-06 13:52 | 50.30336 | 7.76299 | 32806 ft | 503 kts | 101° |
| 2026-05-06 13:52 | 50.29380 | 7.87168 | 32799 ft | 503 kts | 101° |
| 2026-05-06 13:53 | 50.28438 | 7.98010 | 32797 ft | 503 kts | 100° |
| 2026-05-06 13:53 | 50.27540 | 8.08889 | 32797 ft | 503 kts | 100° |
| 2026-05-06 13:54 | 50.26630 | 8.19722 | 32789 ft | 502 kts | 101° |
| 2026-05-06 13:54 | 50.25708 | 8.30487 | 32788 ft | 502 kts | 101° |
| 2026-05-06 13:55 | 50.24775 | 8.41291 | 32781 ft | 502 kts | 101° |
| 2026-05-06 13:55 | 50.23834 | 8.52088 | 32754 ft | 500 kts | 101° |
| 2026-05-06 13:56 | 50.22869 | 8.62839 | 32757 ft | 500 kts | 101° |
| 2026-05-06 13:56 | 50.21899 | 8.73555 | 32763 ft | 501 kts | 101° |
| 2026-05-06 13:57 | 50.20934 | 8.84336 | 32757 ft | 501 kts | 101° |
| 2026-05-06 13:57 | 50.19956 | 8.95115 | 32759 ft | 502 kts | 102° |
| 2026-05-06 13:58 | 50.18957 | 9.05912 | 32754 ft | 503 kts | 102° |
| 2026-05-06 13:58 | 50.17949 | 9.16705 | 32755 ft | 503 kts | 102° |
| 2026-05-06 13:59 | 50.16936 | 9.27462 | 32751 ft | 503 kts | 102° |
| 2026-05-06 13:59 | 50.15905 | 9.38304 | 32752 ft | 504 kts | 102° |
| 2026-05-06 14:00 | 50.14863 | 9.49114 | 32739 ft | 504 kts | 102° |
| 2026-05-06 14:00 | 50.13821 | 9.59864 | 32740 ft | 504 kts | 102° |
| 2026-05-06 14:01 | 50.12761 | 9.70660 | 32731 ft | 504 kts | 103° |
| 2026-05-06 14:01 | 50.11684 | 9.81501 | 32729 ft | 505 kts | 103° |
| 2026-05-06 14:02 | 50.10605 | 9.92256 | 32744 ft | 505 kts | 103° |
| 2026-05-06 14:02 | 50.09505 | 10.03104 | 32734 ft | 506 kts | 103° |
| 2026-05-06 14:03 | 50.08401 | 10.13941 | 32747 ft | 507 kts | 103° |
| 2026-05-06 14:03 | 50.07378 | 10.24831 | 32748 ft | 511 kts | 98° |
| 2026-05-06 14:04 | 50.07387 | 10.35992 | 32754 ft | 515 kts | 94° |
| 2026-05-06 14:04 | 50.07449 | 10.47138 | 32753 ft | 515 kts | 94° |
| 2026-05-06 14:05 | 50.07490 | 10.58312 | 32752 ft | 516 kts | 94° |
| 2026-05-06 14:05 | 50.06589 | 10.69196 | 32760 ft | 508 kts | 107° |
| 2026-05-06 14:06 | 50.05073 | 10.79965 | 32761 ft | 509 kts | 107° |
| 2026-05-06 14:06 | 50.03597 | 10.90680 | 32759 ft | 509 kts | 108° |
| 2026-05-06 14:07 | 50.02078 | 11.01480 | 32767 ft | 510 kts | 108° |
| 2026-05-06 14:07 | 50.00588 | 11.12204 | 32775 ft | 511 kts | 107° |
| 2026-05-06 14:08 | 49.99079 | 11.23116 | 32774 ft | 512 kts | 107° |
| 2026-05-06 14:08 | 49.97549 | 11.33869 | 32770 ft | 512 kts | 108° |
| 2026-05-06 14:09 | 49.96023 | 11.44680 | 32768 ft | 512 kts | 108° |
| 2026-05-06 14:09 | 49.94480 | 11.55480 | 32756 ft | 513 kts | 108° |
| 2026-05-06 14:10 | 49.92922 | 11.66305 | 32753 ft | 513 kts | 108° |
| 2026-05-06 14:10 | 49.91366 | 11.77047 | 32769 ft | 513 kts | 108° |
| 2026-05-06 14:11 | 49.89784 | 11.87867 | 32766 ft | 514 kts | 108° |
| 2026-05-06 14:11 | 49.88186 | 11.98688 | 32753 ft | 515 kts | 108° |
| 2026-05-06 14:12 | 49.86591 | 12.09459 | 32754 ft | 515 kts | 108° |
| 2026-05-06 14:12 | 49.84977 | 12.20283 | 32752 ft | 515 kts | 108° |
| 2026-05-06 14:13 | 49.83351 | 12.31106 | 32751 ft | 516 kts | 108° |
| 2026-05-06 14:13 | 49.81694 | 12.41917 | 32752 ft | 514 kts | 111° |
| 2026-05-06 14:14 | 49.79140 | 12.52146 | 32759 ft | 504 kts | 123° |
| 2026-05-06 14:14 | 49.75931 | 12.61786 | 32761 ft | 504 kts | 123° |
| 2026-05-06 14:15 | 49.72774 | 12.71418 | 32751 ft | 505 kts | 123° |
| 2026-05-06 14:15 | 49.69585 | 12.81096 | 32757 ft | 506 kts | 123° |
| 2026-05-06 14:16 | 49.66377 | 12.90771 | 32767 ft | 506 kts | 123° |
| 2026-05-06 14:16 | 49.63155 | 13.00470 | 32774 ft | 507 kts | 123° |
| 2026-05-06 14:17 | 49.59926 | 13.10146 | 32776 ft | 508 kts | 123° |
| 2026-05-06 14:17 | 49.56706 | 13.19762 | 32773 ft | 508 kts | 123° |
| 2026-05-06 14:18 | 49.53452 | 13.29429 | 32773 ft | 508 kts | 124° |
| 2026-05-06 14:18 | 49.50186 | 13.39104 | 32766 ft | 509 kts | 124° |
| 2026-05-06 14:19 | 49.46921 | 13.48732 | 32763 ft | 510 kts | 124° |
| 2026-05-06 14:19 | 49.43629 | 13.58398 | 32759 ft | 510 kts | 124° |
| 2026-05-06 14:20 | 49.40329 | 13.68066 | 32775 ft | 511 kts | 124° |
| 2026-05-06 14:20 | 49.37019 | 13.77728 | 32767 ft | 511 kts | 124° |
| 2026-05-06 14:21 | 49.33693 | 13.87389 | 32767 ft | 511 kts | 124° |
| 2026-05-06 14:21 | 49.30385 | 13.96962 | 32758 ft | 511 kts | 124° |
| 2026-05-06 14:22 | 49.27048 | 14.06585 | 32756 ft | 511 kts | 124° |
| 2026-05-06 14:22 | 49.23699 | 14.16203 | 32755 ft | 512 kts | 124° |
| 2026-05-06 14:23 | 49.20898 | 14.24211 | 32755 ft | 513 kts | 125° |
| 2026-05-06 14:23 | 49.16977 | 14.35406 | 32757 ft | 514 kts | 125° |
| 2026-05-06 14:24 | 49.14143 | 14.43463 | 32757 ft | 513 kts | 125° |
| 2026-05-06 14:24 | 49.10766 | 14.53033 | 32750 ft | 514 kts | 125° |
| 2026-05-06 14:25 | 49.07361 | 14.62636 | 32750 ft | 513 kts | 125° |
| 2026-05-06 14:25 | 49.03980 | 14.72150 | 32798 ft | 516 kts | 125° |
| 2026-05-06 14:26 | 49.02256 | 14.76979 | 33185 ft | 516 kts | 126° |
| 2026-05-06 14:26 | 49.00543 | 14.81770 | 33582 ft | 516 kts | 126° |
| 2026-05-06 14:26 | 48.98819 | 14.86589 | 33941 ft | 516 kts | 126° |
| 2026-05-06 14:26 | 48.97102 | 14.91387 | 34363 ft | 514 kts | 125° |
| 2026-05-06 14:27 | 48.95382 | 14.96176 | 34670 ft | 515 kts | 125° |
| 2026-05-06 14:27 | 48.93672 | 15.00928 | 34750 ft | 510 kts | 125° |
| 2026-05-06 14:27 | 48.90266 | 15.10365 | 34748 ft | 510 kts | 125° |
| 2026-05-06 14:28 | 48.87342 | 15.20228 | 34749 ft | 517 kts | 119° |
| 2026-05-06 14:28 | 48.84546 | 15.30301 | 34742 ft | 517 kts | 119° |
| 2026-05-06 14:29 | 48.81729 | 15.40345 | 34755 ft | 517 kts | 119° |
| 2026-05-06 14:29 | 48.78899 | 15.50324 | 34754 ft | 517 kts | 119° |
| 2026-05-06 14:30 | 48.76044 | 15.60356 | 34750 ft | 518 kts | 119° |
| 2026-05-06 14:30 | 48.73185 | 15.70365 | 34747 ft | 517 kts | 119° |
| 2026-05-06 14:31 | 48.70309 | 15.80389 | 34747 ft | 518 kts | 119° |
| 2026-05-06 14:31 | 48.67445 | 15.90325 | 34745 ft | 517 kts | 119° |
| 2026-05-06 14:32 | 48.64554 | 16.00318 | 34738 ft | 518 kts | 119° |
| 2026-05-06 14:32 | 48.61651 | 16.10306 | 34740 ft | 518 kts | 119° |
| 2026-05-06 14:33 | 48.58744 | 16.20249 | 34739 ft | 518 kts | 119° |
| 2026-05-06 14:33 | 48.55829 | 16.30207 | 34744 ft | 518 kts | 119° |
| 2026-05-06 14:34 | 48.52896 | 16.40171 | 34750 ft | 519 kts | 119° |
| 2026-05-06 14:34 | 48.49983 | 16.50042 | 34755 ft | 519 kts | 119° |
| 2026-05-06 14:35 | 48.47029 | 16.60006 | 34765 ft | 519 kts | 119° |
| 2026-05-06 14:35 | 48.44066 | 16.69957 | 34768 ft | 520 kts | 119° |
| 2026-05-06 14:36 | 48.41092 | 16.79904 | 34776 ft | 521 kts | 119° |
| 2026-05-06 14:36 | 48.38115 | 16.89819 | 34786 ft | 521 kts | 119° |
| 2026-05-06 14:37 | 48.35129 | 16.99728 | 34795 ft | 522 kts | 119° |
| 2026-05-06 14:37 | 48.32119 | 17.09674 | 34798 ft | 522 kts | 119° |
| 2026-05-06 14:38 | 48.29100 | 17.19604 | 34803 ft | 522 kts | 119° |
| 2026-05-06 14:38 | 48.26084 | 17.29489 | 34798 ft | 523 kts | 119° |
| 2026-05-06 14:39 | 48.23041 | 17.39426 | 34787 ft | 524 kts | 119° |
| 2026-05-06 14:39 | 48.20007 | 17.49301 | 34791 ft | 524 kts | 119° |
| 2026-05-06 14:40 | 48.16942 | 17.59222 | 34811 ft | 524 kts | 119° |
| 2026-05-06 14:40 | 48.13869 | 17.69130 | 34812 ft | 524 kts | 118° |
| 2026-05-06 14:41 | 48.10792 | 17.79019 | 34829 ft | 523 kts | 118° |
| 2026-05-06 14:41 | 48.07724 | 17.88837 | 34831 ft | 523 kts | 118° |
| 2026-05-06 14:42 | 48.04631 | 17.98694 | 34837 ft | 523 kts | 118° |
| 2026-05-06 14:42 | 48.01535 | 18.08527 | 34845 ft | 522 kts | 118° |
| 2026-05-06 14:43 | 47.98439 | 18.18328 | 34848 ft | 521 kts | 118° |
| 2026-05-06 14:43 | 47.95328 | 18.28134 | 34848 ft | 521 kts | 118° |
| 2026-05-06 14:44 | 47.92227 | 18.37861 | 34853 ft | 521 kts | 118° |
| 2026-05-06 14:45 | 47.87539 | 18.52500 | 34861 ft | 521 kts | 118° |
| 2026-05-06 14:45 | 47.84407 | 18.62223 | 34866 ft | 521 kts | 118° |
| 2026-05-06 14:46 | 47.81260 | 18.71973 | 34873 ft | 521 kts | 120° |
| 2026-05-06 14:46 | 47.77719 | 18.81267 | 34876 ft | 519 kts | 123° |
| 2026-05-06 14:47 | 47.74127 | 18.90595 | 34881 ft | 519 kts | 123° |
| 2026-05-06 14:47 | 47.70544 | 18.99872 | 34886 ft | 519 kts | 123° |
| 2026-05-06 14:48 | 47.66937 | 19.09140 | 34888 ft | 519 kts | 123° |
| 2026-05-06 14:48 | 47.63300 | 19.18446 | 34886 ft | 520 kts | 123° |
| 2026-05-06 14:49 | 47.59678 | 19.27668 | 34886 ft | 520 kts | 123° |
| 2026-05-06 14:49 | 47.56027 | 19.36939 | 34889 ft | 520 kts | 123° |
| 2026-05-06 14:50 | 47.52371 | 19.46189 | 34887 ft | 520 kts | 123° |
| 2026-05-06 14:50 | 47.48711 | 19.55419 | 34889 ft | 520 kts | 123° |
| 2026-05-06 14:51 | 47.45044 | 19.64628 | 34892 ft | 521 kts | 123° |
| 2026-05-06 14:51 | 47.41379 | 19.73836 | 34895 ft | 521 kts | 123° |
| 2026-05-06 14:52 | 47.37690 | 19.83037 | 34898 ft | 520 kts | 123° |
| 2026-05-06 14:52 | 47.34014 | 19.92178 | 34893 ft | 520 kts | 123° |
| 2026-05-06 14:53 | 47.30312 | 20.01347 | 34899 ft | 520 kts | 123° |
| 2026-05-06 14:53 | 47.26609 | 20.10509 | 34900 ft | 520 kts | 122° |
| 2026-05-06 14:54 | 47.22919 | 20.19664 | 34902 ft | 519 kts | 122° |
| 2026-05-06 14:54 | 47.19193 | 20.28762 | 34905 ft | 519 kts | 123° |
| 2026-05-06 14:55 | 47.15460 | 20.37827 | 34925 ft | 521 kts | 123° |
| 2026-05-06 14:55 | 47.11729 | 20.46947 | 34916 ft | 520 kts | 123° |
| 2026-05-06 14:56 | 47.07992 | 20.56053 | 34911 ft | 520 kts | 123° |
| 2026-05-06 14:56 | 47.04244 | 20.65135 | 34905 ft | 519 kts | 123° |
| 2026-05-06 14:57 | 47.00523 | 20.74124 | 34910 ft | 519 kts | 123° |
| 2026-05-06 14:57 | 46.96771 | 20.83153 | 34907 ft | 518 kts | 123° |
| 2026-05-06 14:58 | 46.93017 | 20.92157 | 34909 ft | 518 kts | 123° |
| 2026-05-06 14:58 | 46.89265 | 21.01124 | 34915 ft | 518 kts | 123° |
| 2026-05-06 14:59 | 46.85491 | 21.10117 | 34916 ft | 518 kts | 123° |
| 2026-05-06 14:59 | 46.81708 | 21.19100 | 34919 ft | 518 kts | 123° |
| 2026-05-06 15:00 | 46.77918 | 21.28074 | 34919 ft | 519 kts | 124° |
| 2026-05-06 15:00 | 46.74141 | 21.36990 | 34937 ft | 519 kts | 124° |
| 2026-05-06 15:01 | 46.70330 | 21.45967 | 34940 ft | 520 kts | 124° |
| 2026-05-06 15:01 | 46.66616 | 21.55002 | 34938 ft | 521 kts | 120° |
| 2026-05-06 15:02 | 46.63231 | 21.64371 | 34937 ft | 521 kts | 119° |
| 2026-05-06 15:02 | 46.59841 | 21.73701 | 34940 ft | 521 kts | 120° |
| 2026-05-06 15:03 | 46.56446 | 21.82923 | 34945 ft | 521 kts | 120° |
| 2026-05-06 15:03 | 46.53002 | 21.92204 | 34952 ft | 521 kts | 120° |
| 2026-05-06 15:04 | 46.49553 | 22.01450 | 34952 ft | 520 kts | 120° |
| 2026-05-06 15:04 | 46.46098 | 22.10683 | 34955 ft | 520 kts | 120° |
| 2026-05-06 15:05 | 46.42663 | 22.19829 | 34949 ft | 519 kts | 120° |
| 2026-05-06 15:05 | 46.39194 | 22.29027 | 34945 ft | 519 kts | 120° |
| 2026-05-06 15:06 | 46.35720 | 22.38205 | 34949 ft | 519 kts | 120° |
| 2026-05-06 15:06 | 46.32262 | 22.47308 | 34956 ft | 519 kts | 120° |
| 2026-05-06 15:07 | 46.28771 | 22.56456 | 34960 ft | 519 kts | 120° |
| 2026-05-06 15:07 | 46.25279 | 22.65588 | 34961 ft | 519 kts | 120° |
| 2026-05-06 15:08 | 46.21770 | 22.74733 | 34959 ft | 519 kts | 120° |
| 2026-05-06 15:08 | 46.18847 | 22.82329 | 34961 ft | 519 kts | 120° |
| 2026-05-06 15:09 | 46.15326 | 22.91452 | 34962 ft | 519 kts | 120° |
| 2026-05-06 15:09 | 46.11825 | 23.00491 | 34956 ft | 519 kts | 120° |
| 2026-05-06 15:10 | 46.08293 | 23.09580 | 34949 ft | 518 kts | 120° |
| 2026-05-06 15:10 | 46.04782 | 23.18580 | 34939 ft | 517 kts | 120° |
| 2026-05-06 15:11 | 46.01251 | 23.27602 | 34932 ft | 517 kts | 120° |
| 2026-05-06 15:11 | 45.97733 | 23.36578 | 34935 ft | 517 kts | 120° |
| 2026-05-06 15:12 | 45.94187 | 23.45583 | 34933 ft | 517 kts | 120° |
| 2026-05-06 15:12 | 45.90630 | 23.54582 | 34936 ft | 517 kts | 120° |
| 2026-05-06 15:13 | 45.87082 | 23.63532 | 34943 ft | 518 kts | 120° |
| 2026-05-06 15:13 | 45.83523 | 23.72486 | 34942 ft | 518 kts | 120° |
| 2026-05-06 15:14 | 45.79927 | 23.81495 | 34944 ft | 519 kts | 120° |
| 2026-05-06 15:14 | 45.76333 | 23.90475 | 34941 ft | 519 kts | 120° |
| 2026-05-06 15:15 | 45.72737 | 23.99436 | 34943 ft | 519 kts | 120° |
| 2026-05-06 15:15 | 45.69143 | 24.08355 | 34943 ft | 519 kts | 120° |
| 2026-05-06 15:16 | 45.65529 | 24.17293 | 34948 ft | 519 kts | 120° |
| 2026-05-06 15:16 | 45.61926 | 24.26179 | 34951 ft | 519 kts | 120° |
| 2026-05-06 15:17 | 45.58297 | 24.35104 | 34957 ft | 519 kts | 120° |
| 2026-05-06 15:17 | 45.54659 | 24.44019 | 34976 ft | 519 kts | 120° |
| 2026-05-06 15:18 | 45.51009 | 24.52935 | 34971 ft | 519 kts | 120° |
| 2026-05-06 15:18 | 45.47377 | 24.61781 | 34984 ft | 519 kts | 120° |
| 2026-05-06 15:19 | 45.43710 | 24.70681 | 34991 ft | 519 kts | 120° |
| 2026-05-06 15:19 | 45.40063 | 24.79506 | 34991 ft | 520 kts | 120° |
| 2026-05-06 15:20 | 45.36395 | 24.88358 | 34995 ft | 520 kts | 120° |
| 2026-05-06 15:20 | 45.32707 | 24.97225 | 35003 ft | 520 kts | 120° |
| 2026-05-06 15:21 | 45.29010 | 25.06083 | 35010 ft | 521 kts | 120° |
| 2026-05-06 15:21 | 45.25302 | 25.14938 | 35019 ft | 521 kts | 120° |
| 2026-05-06 15:22 | 45.21607 | 25.23743 | 35020 ft | 522 kts | 120° |
| 2026-05-06 15:22 | 45.17882 | 25.32590 | 35025 ft | 522 kts | 120° |
| 2026-05-06 15:23 | 45.14144 | 25.41428 | 35025 ft | 522 kts | 120° |
| 2026-05-06 15:23 | 45.10408 | 25.50250 | 35025 ft | 522 kts | 119° |
| 2026-05-06 15:24 | 45.06659 | 25.59075 | 35019 ft | 521 kts | 120° |
| 2026-05-06 15:24 | 45.02925 | 25.67828 | 35018 ft | 522 kts | 120° |
| 2026-05-06 15:25 | 44.99188 | 25.76564 | 35009 ft | 522 kts | 119° |
| 2026-05-06 15:25 | 44.95424 | 25.85336 | 35012 ft | 522 kts | 119° |
| 2026-05-06 15:26 | 44.91645 | 25.94120 | 35015 ft | 522 kts | 119° |
| 2026-05-06 15:26 | 44.87866 | 26.02872 | 35018 ft | 522 kts | 120° |
| 2026-05-06 15:27 | 44.84105 | 26.11550 | 35024 ft | 521 kts | 120° |
| 2026-05-06 15:27 | 44.80316 | 26.20270 | 35034 ft | 521 kts | 119° |
| 2026-05-06 15:28 | 44.76529 | 26.28967 | 35037 ft | 520 kts | 120° |
| 2026-05-06 15:28 | 44.72733 | 26.37651 | 35036 ft | 519 kts | 120° |
| 2026-05-06 15:29 | 44.68965 | 26.46250 | 35020 ft | 519 kts | 120° |
| 2026-05-06 15:29 | 44.65170 | 26.54867 | 35017 ft | 518 kts | 120° |
| 2026-05-06 15:30 | 44.61384 | 26.63452 | 35022 ft | 517 kts | 120° |
| 2026-05-06 15:30 | 44.57606 | 26.72000 | 35018 ft | 516 kts | 120° |
| 2026-05-06 15:31 | 44.53808 | 26.80557 | 35020 ft | 516 kts | 120° |
| 2026-05-06 15:31 | 44.50006 | 26.89094 | 35015 ft | 515 kts | 120° |
| 2026-05-06 15:32 | 44.44307 | 27.01855 | 35020 ft | 515 kts | 120° |
| 2026-05-06 15:32 | 44.40523 | 27.10299 | 35023 ft | 515 kts | 120° |
| 2026-05-06 15:33 | 44.36707 | 27.18775 | 35029 ft | 515 kts | 120° |
| 2026-05-06 15:33 | 44.32887 | 27.27249 | 35028 ft | 514 kts | 120° |
| 2026-05-06 15:34 | 44.29064 | 27.35705 | 35032 ft | 514 kts | 120° |
| 2026-05-06 15:34 | 44.25256 | 27.44098 | 35031 ft | 514 kts | 120° |
| 2026-05-06 15:35 | 44.21422 | 27.52529 | 35034 ft | 514 kts | 120° |
| 2026-05-06 15:35 | 44.17582 | 27.60942 | 35039 ft | 515 kts | 120° |
| 2026-05-06 15:36 | 44.13729 | 27.69363 | 35046 ft | 515 kts | 120° |
| 2026-05-06 15:36 | 44.09870 | 27.77769 | 35052 ft | 515 kts | 120° |
| 2026-05-06 15:37 | 44.06004 | 27.86164 | 35050 ft | 515 kts | 120° |
| 2026-05-06 15:37 | 44.02135 | 27.94544 | 35053 ft | 514 kts | 120° |
| 2026-05-06 15:38 | 43.98267 | 28.02903 | 35058 ft | 514 kts | 120° |
| 2026-05-06 15:38 | 43.94410 | 28.11210 | 35058 ft | 514 kts | 120° |
| 2026-05-06 15:39 | 43.90528 | 28.19551 | 35059 ft | 514 kts | 120° |
| 2026-05-06 15:39 | 43.86644 | 28.27867 | 35066 ft | 513 kts | 120° |
| 2026-05-06 15:40 | 43.82760 | 28.36152 | 35073 ft | 513 kts | 120° |
| 2026-05-06 15:40 | 43.78893 | 28.44393 | 35074 ft | 513 kts | 120° |
| 2026-05-06 15:41 | 43.74994 | 28.52671 | 35081 ft | 512 kts | 120° |
| 2026-05-06 15:41 | 43.71119 | 28.60871 | 35085 ft | 511 kts | 120° |
| 2026-05-06 15:42 | 43.67223 | 28.69103 | 35096 ft | 511 kts | 121° |
| 2026-05-06 15:42 | 43.63328 | 28.77304 | 35097 ft | 510 kts | 121° |
| 2026-05-06 15:43 | 43.59440 | 28.85478 | 35099 ft | 509 kts | 121° |
| 2026-05-06 15:43 | 43.55535 | 28.93648 | 35100 ft | 509 kts | 121° |
| 2026-05-06 15:44 | 43.51660 | 29.01735 | 35100 ft | 508 kts | 121° |
| 2026-05-06 15:44 | 43.47751 | 29.09872 | 35100 ft | 508 kts | 121° |
| 2026-05-06 15:45 | 43.43846 | 29.17984 | 35098 ft | 507 kts | 121° |
| 2026-05-06 15:45 | 43.39945 | 29.26066 | 35094 ft | 507 kts | 121° |
| 2026-05-06 15:46 | 43.36054 | 29.34099 | 35096 ft | 507 kts | 121° |
| 2026-05-06 15:46 | 43.32134 | 29.42177 | 35098 ft | 507 kts | 121° |
| 2026-05-06 15:47 | 43.28210 | 29.50237 | 35102 ft | 508 kts | 122° |
| 2026-05-06 15:47 | 43.24273 | 29.58298 | 35102 ft | 508 kts | 122° |
| 2026-05-06 15:48 | 43.20333 | 29.66347 | 35103 ft | 508 kts | 122° |
| 2026-05-06 15:48 | 43.16384 | 29.74386 | 35103 ft | 509 kts | 122° |
| 2026-05-06 15:49 | 43.12456 | 29.82367 | 35108 ft | 509 kts | 122° |
| 2026-05-06 15:49 | 43.08484 | 29.90417 | 35110 ft | 509 kts | 122° |
| 2026-05-06 15:50 | 43.04509 | 29.98451 | 35117 ft | 509 kts | 122° |
| 2026-05-06 15:50 | 43.01197 | 30.05126 | 35098 ft | 509 kts | 122° |
| 2026-05-06 15:51 | 42.96558 | 30.14450 | 35104 ft | 509 kts | 122° |
| 2026-05-06 15:51 | 42.92565 | 30.22452 | 35104 ft | 510 kts | 122° |
| 2026-05-06 15:52 | 42.89240 | 30.29106 | 35109 ft | 510 kts | 122° |
| 2026-05-06 15:52 | 42.85341 | 30.36901 | 35108 ft | 510 kts | 122° |
| 2026-05-06 15:53 | 42.81353 | 30.44840 | 35103 ft | 510 kts | 122° |
| 2026-05-06 15:53 | 42.77339 | 30.52827 | 35102 ft | 510 kts | 122° |
| 2026-05-06 15:54 | 42.74131 | 30.61363 | 35102 ft | 503 kts | 104° |
| 2026-05-06 15:54 | 42.72774 | 30.70551 | 35105 ft | 498 kts | 94° |
| 2026-05-06 15:55 | 42.71842 | 30.79883 | 35111 ft | 498 kts | 94° |
| 2026-05-06 15:55 | 42.70887 | 30.89218 | 35109 ft | 497 kts | 94° |
| 2026-05-06 15:56 | 42.69923 | 30.98546 | 35111 ft | 497 kts | 95° |
| 2026-05-06 15:56 | 42.68955 | 31.07863 | 35110 ft | 497 kts | 95° |
| 2026-05-06 15:57 | 42.67988 | 31.17127 | 35108 ft | 497 kts | 95° |
| 2026-05-06 15:57 | 42.67005 | 31.26429 | 35113 ft | 497 kts | 95° |
| 2026-05-06 15:58 | 42.66012 | 31.35725 | 35109 ft | 497 kts | 95° |
| 2026-05-06 15:58 | 42.65015 | 31.44994 | 35107 ft | 497 kts | 95° |
| 2026-05-06 15:59 | 42.64012 | 31.54272 | 35107 ft | 497 kts | 95° |
| 2026-05-06 15:59 | 42.62997 | 31.63578 | 35106 ft | 497 kts | 95° |
| 2026-05-06 16:00 | 42.61983 | 31.72826 | 35111 ft | 497 kts | 95° |
| 2026-05-06 16:00 | 42.60952 | 31.82119 | 35108 ft | 497 kts | 95° |
| 2026-05-06 16:01 | 42.59911 | 31.91430 | 35112 ft | 497 kts | 95° |
| 2026-05-06 16:01 | 42.58869 | 32.00705 | 35112 ft | 497 kts | 95° |
| 2026-05-06 16:02 | 42.57834 | 32.09990 | 35113 ft | 497 kts | 95° |
| 2026-05-06 16:02 | 42.56784 | 32.19218 | 35104 ft | 496 kts | 95° |
| 2026-05-06 16:03 | 42.55719 | 32.28471 | 35114 ft | 496 kts | 95° |
| 2026-05-06 16:03 | 42.54647 | 32.37723 | 35106 ft | 496 kts | 96° |
| 2026-05-06 16:04 | 42.53566 | 32.46971 | 35106 ft | 496 kts | 96° |
| 2026-05-06 16:04 | 42.52480 | 32.56208 | 35112 ft | 495 kts | 96° |
| 2026-05-06 16:05 | 42.51396 | 32.65384 | 35113 ft | 495 kts | 96° |
| 2026-05-06 16:05 | 42.50297 | 32.74601 | 35115 ft | 495 kts | 96° |
| 2026-05-06 16:06 | 42.49190 | 32.83818 | 35112 ft | 495 kts | 96° |
| 2026-05-06 16:06 | 42.48080 | 32.93023 | 35107 ft | 495 kts | 96° |
| 2026-05-06 16:07 | 42.46964 | 33.02172 | 35106 ft | 495 kts | 97° |
| 2026-05-06 16:07 | 42.45832 | 33.11375 | 35114 ft | 495 kts | 97° |
| 2026-05-06 16:08 | 42.44698 | 33.20596 | 35117 ft | 495 kts | 97° |
| 2026-05-06 16:08 | 42.43554 | 33.29796 | 35119 ft | 495 kts | 97° |
| 2026-05-06 16:09 | 42.42407 | 33.38942 | 35117 ft | 495 kts | 97° |
| 2026-05-06 16:09 | 42.41247 | 33.48131 | 35118 ft | 495 kts | 97° |
| 2026-05-06 16:10 | 42.40079 | 33.57340 | 35119 ft | 495 kts | 97° |
| 2026-05-06 16:10 | 42.38916 | 33.66450 | 35119 ft | 494 kts | 97° |
| 2026-05-06 16:11 | 42.37736 | 33.75615 | 35121 ft | 494 kts | 97° |
| 2026-05-06 16:11 | 42.36552 | 33.84782 | 35116 ft | 494 kts | 97° |
| 2026-05-06 16:12 | 42.35361 | 33.93939 | 35119 ft | 494 kts | 97° |
| 2026-05-06 16:12 | 42.34170 | 34.03107 | 35121 ft | 495 kts | 97° |
| 2026-05-06 16:13 | 42.32970 | 34.12229 | 35125 ft | 495 kts | 98° |
| 2026-05-06 16:13 | 42.31755 | 34.21405 | 35127 ft | 495 kts | 98° |
| 2026-05-06 16:14 | 42.30536 | 34.30558 | 35129 ft | 495 kts | 98° |
| 2026-05-06 16:14 | 42.29306 | 34.39733 | 35129 ft | 495 kts | 98° |
| 2026-05-06 16:15 | 42.28078 | 34.48844 | 35135 ft | 495 kts | 98° |
| 2026-05-06 16:15 | 42.26834 | 34.57992 | 35134 ft | 495 kts | 98° |
| 2026-05-06 16:16 | 42.25582 | 34.67145 | 35129 ft | 495 kts | 98° |
| 2026-05-06 16:16 | 42.24335 | 34.76221 | 35128 ft | 495 kts | 98° |
| 2026-05-06 16:17 | 42.23071 | 34.85374 | 35128 ft | 495 kts | 98° |
| 2026-05-06 16:17 | 42.21794 | 34.94513 | 35129 ft | 495 kts | 99° |
| 2026-05-06 16:18 | 42.20517 | 35.03607 | 35139 ft | 496 kts | 99° |
| 2026-05-06 16:18 | 42.19228 | 35.12735 | 35130 ft | 496 kts | 99° |
| 2026-05-06 16:19 | 42.17929 | 35.21876 | 35136 ft | 495 kts | 99° |
| 2026-05-06 16:19 | 42.16622 | 35.31001 | 35137 ft | 495 kts | 99° |
| 2026-05-06 16:20 | 42.15317 | 35.40067 | 35133 ft | 495 kts | 99° |
| 2026-05-06 16:20 | 42.13996 | 35.49199 | 35140 ft | 495 kts | 99° |
| 2026-05-06 16:21 | 42.12675 | 35.58316 | 35136 ft | 495 kts | 99° |
| 2026-05-06 16:21 | 42.11357 | 35.67356 | 35135 ft | 495 kts | 99° |
| 2026-05-06 16:22 | 42.10023 | 35.76443 | 35134 ft | 495 kts | 100° |
| 2026-05-06 16:22 | 42.08679 | 35.85546 | 35132 ft | 494 kts | 100° |
| 2026-05-06 16:23 | 42.07327 | 35.94634 | 35132 ft | 494 kts | 100° |
| 2026-05-06 16:23 | 42.05975 | 36.03709 | 35134 ft | 494 kts | 100° |
| 2026-05-06 16:24 | 42.04608 | 36.12787 | 35132 ft | 494 kts | 100° |
| 2026-05-06 16:24 | 42.03248 | 36.21798 | 35137 ft | 495 kts | 101° |
| 2026-05-06 16:25 | 42.01871 | 36.30870 | 35130 ft | 495 kts | 101° |
| 2026-05-06 16:25 | 42.00481 | 36.39941 | 35132 ft | 495 kts | 101° |
| 2026-05-06 16:26 | 41.99095 | 36.48971 | 35134 ft | 495 kts | 101° |
| 2026-05-06 16:26 | 41.97694 | 36.58033 | 35144 ft | 495 kts | 101° |
| 2026-05-06 16:27 | 41.96288 | 36.67087 | 35137 ft | 495 kts | 101° |
| 2026-05-06 16:27 | 41.94873 | 36.76147 | 35145 ft | 495 kts | 101° |
| 2026-05-06 16:28 | 41.93453 | 36.85193 | 35112 ft | 494 kts | 101° |
| 2026-05-06 16:28 | 41.92022 | 36.94242 | 35124 ft | 495 kts | 101° |
| 2026-05-06 16:29 | 41.90527 | 37.03232 | 35136 ft | 497 kts | 105° |
| 2026-05-06 16:29 | 41.88073 | 37.11906 | 35134 ft | 498 kts | 113° |
| 2026-05-06 16:30 | 41.85821 | 37.19033 | 35149 ft | 498 kts | 112° |
| 2026-05-06 16:30 | 41.82687 | 37.29010 | 35133 ft | 499 kts | 112° |
| 2026-05-06 16:31 | 41.79974 | 37.37588 | 35137 ft | 499 kts | 112° |
| 2026-05-06 16:31 | 41.77254 | 37.46156 | 35136 ft | 499 kts | 113° |
| 2026-05-06 16:32 | 41.74531 | 37.54715 | 35135 ft | 499 kts | 113° |
| 2026-05-06 16:32 | 41.71797 | 37.63266 | 35158 ft | 499 kts | 113° |
| 2026-05-06 16:33 | 41.69059 | 37.71802 | 35144 ft | 499 kts | 113° |
| 2026-05-06 16:34 | 41.65410 | 37.83162 | 35154 ft | 499 kts | 113° |
| 2026-05-06 16:34 | 41.62197 | 37.93130 | 35158 ft | 499 kts | 113° |
| 2026-05-06 16:35 | 41.59465 | 38.01581 | 35162 ft | 498 kts | 113° |
| 2026-05-06 16:35 | 41.56703 | 38.10077 | 35159 ft | 498 kts | 114° |
| 2026-05-06 16:36 | 41.54395 | 38.17155 | 35147 ft | 498 kts | 114° |
| 2026-05-06 16:36 | 41.51175 | 38.27007 | 35140 ft | 498 kts | 114° |
| 2026-05-06 16:37 | 41.48861 | 38.34068 | 35146 ft | 498 kts | 114° |
| 2026-05-06 16:37 | 41.46072 | 38.42547 | 35162 ft | 499 kts | 114° |
| 2026-05-06 16:38 | 41.43282 | 38.51025 | 35160 ft | 499 kts | 114° |
| 2026-05-06 16:38 | 41.40479 | 38.59502 | 35162 ft | 500 kts | 114° |
| 2026-05-06 16:39 | 41.37681 | 38.67940 | 35156 ft | 500 kts | 114° |
| 2026-05-06 16:39 | 41.34863 | 38.76408 | 35142 ft | 500 kts | 114° |
| 2026-05-06 16:40 | 41.32057 | 38.84893 | 35157 ft | 501 kts | 114° |
| 2026-05-06 16:40 | 41.29285 | 38.93401 | 35156 ft | 501 kts | 114° |
| 2026-05-06 16:41 | 41.26515 | 39.01865 | 35151 ft | 501 kts | 114° |
| 2026-05-06 16:41 | 41.23717 | 39.10372 | 35155 ft | 501 kts | 115° |
| 2026-05-06 16:42 | 41.20902 | 39.18874 | 35161 ft | 502 kts | 115° |
| 2026-05-06 16:42 | 41.17984 | 39.27248 | 35156 ft | 502 kts | 116° |
| 2026-05-06 16:43 | 41.15019 | 39.35658 | 35154 ft | 502 kts | 116° |
| 2026-05-06 16:43 | 41.12072 | 39.44047 | 35156 ft | 502 kts | 116° |
| 2026-05-06 16:44 | 41.09117 | 39.52452 | 35156 ft | 502 kts | 116° |
| 2026-05-06 16:44 | 41.06176 | 39.60798 | 35155 ft | 502 kts | 116° |
| 2026-05-06 16:45 | 41.03211 | 39.69179 | 35156 ft | 502 kts | 116° |
| 2026-05-06 16:45 | 41.00501 | 39.77724 | 35155 ft | 504 kts | 108° |
| 2026-05-06 16:46 | 40.99333 | 39.86816 | 35155 ft | 507 kts | 93° |
| 2026-05-06 16:46 | 40.99145 | 39.96181 | 35157 ft | 508 kts | 93° |
| 2026-05-06 16:47 | 40.98916 | 40.05535 | 35157 ft | 508 kts | 93° |
| 2026-05-06 16:47 | 40.98678 | 40.14833 | 35165 ft | 508 kts | 93° |
| 2026-05-06 16:48 | 40.98431 | 40.24202 | 35165 ft | 509 kts | 94° |
| 2026-05-06 16:48 | 40.98176 | 40.33537 | 35169 ft | 509 kts | 94° |
| 2026-05-06 16:49 | 40.97911 | 40.42928 | 35170 ft | 510 kts | 94° |
| 2026-05-06 16:49 | 40.97633 | 40.52309 | 35171 ft | 510 kts | 94° |
| 2026-05-06 16:50 | 40.97358 | 40.61650 | 35166 ft | 510 kts | 94° |
| 2026-05-06 16:50 | 40.97075 | 40.71032 | 35170 ft | 511 kts | 94° |
| 2026-05-06 16:51 | 40.96778 | 40.80434 | 35159 ft | 511 kts | 94° |
| 2026-05-06 16:51 | 40.96477 | 40.89851 | 35156 ft | 510 kts | 94° |
| 2026-05-06 16:52 | 40.96164 | 40.99239 | 35151 ft | 511 kts | 94° |
| 2026-05-06 16:52 | 40.95848 | 41.08592 | 35158 ft | 511 kts | 95° |
| 2026-05-06 16:53 | 40.95522 | 41.18011 | 35149 ft | 512 kts | 95° |
| 2026-05-06 16:53 | 40.95182 | 41.27456 | 35143 ft | 514 kts | 95° |
| 2026-05-06 16:54 | 40.94841 | 41.36897 | 35140 ft | 514 kts | 95° |
| 2026-05-06 16:54 | 40.94491 | 41.46351 | 35137 ft | 514 kts | 95° |
| 2026-05-06 16:55 | 40.94132 | 41.55815 | 35139 ft | 516 kts | 95° |
| 2026-05-06 16:55 | 40.93766 | 41.65250 | 35141 ft | 517 kts | 95° |
| 2026-05-06 16:56 | 40.93389 | 41.74744 | 35142 ft | 518 kts | 95° |
| 2026-05-06 16:56 | 40.93004 | 41.84294 | 35142 ft | 519 kts | 96° |
| 2026-05-06 16:57 | 40.92608 | 41.93844 | 35143 ft | 519 kts | 96° |
| 2026-05-06 16:57 | 40.92211 | 42.03336 | 35134 ft | 520 kts | 96° |
| 2026-05-06 16:58 | 40.91801 | 42.12913 | 35134 ft | 521 kts | 96° |
| 2026-05-06 16:58 | 40.91381 | 42.22488 | 35124 ft | 520 kts | 96° |
| 2026-05-06 16:59 | 40.90948 | 42.32045 | 35128 ft | 522 kts | 96° |
| 2026-05-06 16:59 | 40.90519 | 42.41579 | 35129 ft | 522 kts | 96° |
| 2026-05-06 17:00 | 40.90073 | 42.51194 | 35122 ft | 523 kts | 96° |
| 2026-05-06 17:00 | 40.89623 | 42.60798 | 35128 ft | 523 kts | 96° |
| 2026-05-06 17:01 | 40.89168 | 42.70347 | 35124 ft | 523 kts | 97° |
| 2026-05-06 17:01 | 40.88699 | 42.79960 | 35125 ft | 523 kts | 97° |
| 2026-05-06 17:02 | 40.88222 | 42.89569 | 35129 ft | 524 kts | 97° |
| 2026-05-06 17:02 | 40.87740 | 42.99177 | 35115 ft | 524 kts | 97° |
| 2026-05-06 17:03 | 40.87248 | 43.08725 | 35106 ft | 524 kts | 97° |
| 2026-05-06 17:03 | 40.86749 | 43.18350 | 35106 ft | 524 kts | 97° |
| 2026-05-06 17:04 | 40.86238 | 43.27989 | 35117 ft | 524 kts | 97° |
| 2026-05-06 17:04 | 40.85717 | 43.37604 | 35109 ft | 525 kts | 97° |
| 2026-05-06 17:05 | 40.85195 | 43.47171 | 35106 ft | 525 kts | 97° |
| 2026-05-06 17:05 | 40.84661 | 43.56811 | 35103 ft | 525 kts | 97° |
| 2026-05-06 17:06 | 40.84121 | 43.66452 | 35099 ft | 526 kts | 97° |
| 2026-05-06 17:06 | 40.83691 | 43.76059 | 35101 ft | 527 kts | 95° |
| 2026-05-06 17:07 | 40.83423 | 43.85732 | 35102 ft | 527 kts | 95° |
| 2026-05-06 17:07 | 40.83119 | 43.95431 | 35104 ft | 528 kts | 96° |
| 2026-05-06 17:08 | 40.82790 | 44.05104 | 35108 ft | 528 kts | 96° |
| 2026-05-06 17:08 | 40.82451 | 44.14798 | 35108 ft | 528 kts | 96° |
| 2026-05-06 17:09 | 40.82105 | 44.24509 | 35103 ft | 528 kts | 96° |
| 2026-05-06 17:09 | 40.81752 | 44.34148 | 35111 ft | 528 kts | 96° |
| 2026-05-06 17:10 | 40.81389 | 44.43840 | 35114 ft | 528 kts | 96° |
| 2026-05-06 17:10 | 40.81018 | 44.53535 | 35106 ft | 529 kts | 96° |
| 2026-05-06 17:11 | 40.80641 | 44.63257 | 35100 ft | 530 kts | 96° |
| 2026-05-06 17:11 | 40.80252 | 44.72901 | 35106 ft | 530 kts | 97° |
| 2026-05-06 17:12 | 40.79853 | 44.82634 | 35112 ft | 531 kts | 97° |
| 2026-05-06 17:12 | 40.79447 | 44.92382 | 35111 ft | 530 kts | 97° |
| 2026-05-06 17:13 | 40.79032 | 45.02117 | 35112 ft | 531 kts | 97° |
| 2026-05-06 17:13 | 40.78612 | 45.11816 | 35113 ft | 531 kts | 97° |
| 2026-05-06 17:14 | 40.78181 | 45.21547 | 35107 ft | 531 kts | 97° |
| 2026-05-06 17:14 | 40.77740 | 45.31305 | 35100 ft | 531 kts | 97° |
| 2026-05-06 17:15 | 40.77296 | 45.40968 | 35109 ft | 531 kts | 97° |
| 2026-05-06 17:15 | 40.76818 | 45.50717 | 35098 ft | 530 kts | 100° |
| 2026-05-06 17:16 | 40.75936 | 45.60363 | 35095 ft | 530 kts | 101° |
| 2026-05-06 17:16 | 40.75079 | 45.70033 | 35091 ft | 531 kts | 101° |
| 2026-05-06 17:17 | 40.74206 | 45.79684 | 35094 ft | 531 kts | 101° |
| 2026-05-06 17:17 | 40.73315 | 45.89371 | 35083 ft | 532 kts | 101° |
| 2026-05-06 17:18 | 40.72423 | 45.99001 | 35078 ft | 532 kts | 101° |
| 2026-05-06 17:18 | 40.71515 | 46.08702 | 35079 ft | 533 kts | 102° |
| 2026-05-06 17:19 | 40.70755 | 46.16754 | 35079 ft | 533 kts | 102° |
| 2026-05-06 17:19 | 40.69669 | 46.28115 | 35074 ft | 534 kts | 102° |
| 2026-05-06 17:20 | 40.68897 | 46.36146 | 35070 ft | 534 kts | 102° |
| 2026-05-06 17:20 | 40.67955 | 46.45873 | 35070 ft | 535 kts | 102° |
| 2026-05-06 17:21 | 40.67004 | 46.55635 | 35067 ft | 536 kts | 102° |
| 2026-05-06 17:21 | 40.66041 | 46.65389 | 35063 ft | 537 kts | 102° |
| 2026-05-06 17:22 | 40.65064 | 46.75171 | 35055 ft | 538 kts | 102° |
| 2026-05-06 17:22 | 40.64088 | 46.84884 | 35053 ft | 539 kts | 102° |
| 2026-05-06 17:23 | 40.63095 | 46.94707 | 35053 ft | 540 kts | 102° |
| 2026-05-06 17:23 | 40.62091 | 47.04534 | 35051 ft | 541 kts | 103° |
| 2026-05-06 17:24 | 40.61081 | 47.14352 | 35051 ft | 542 kts | 103° |
| 2026-05-06 17:24 | 40.60479 | 47.24210 | 35043 ft | 547 kts | 96° |
| 2026-05-06 17:25 | 40.60221 | 47.34226 | 35054 ft | 547 kts | 96° |
| 2026-05-06 17:25 | 40.59937 | 47.44248 | 35050 ft | 547 kts | 96° |
| 2026-05-06 17:26 | 40.59640 | 47.54270 | 35043 ft | 548 kts | 97° |
| 2026-05-06 17:26 | 40.59331 | 47.64311 | 35040 ft | 548 kts | 97° |
| 2026-05-06 17:27 | 40.59014 | 47.74347 | 35041 ft | 549 kts | 97° |
| 2026-05-06 17:27 | 40.58691 | 47.84318 | 35038 ft | 549 kts | 97° |
| 2026-05-06 17:28 | 40.58360 | 47.94363 | 35033 ft | 550 kts | 96° |
| 2026-05-06 17:28 | 40.58596 | 48.04486 | 35026 ft | 553 kts | 92° |
| 2026-05-06 17:29 | 40.58886 | 48.14625 | 35038 ft | 554 kts | 92° |
| 2026-05-06 17:29 | 40.59158 | 48.24762 | 35033 ft | 554 kts | 92° |
| 2026-05-06 17:30 | 40.59418 | 48.34844 | 35042 ft | 554 kts | 92° |
| 2026-05-06 17:30 | 40.59671 | 48.44974 | 35046 ft | 554 kts | 92° |
| 2026-05-06 17:31 | 40.59914 | 48.55108 | 35041 ft | 553 kts | 92° |
| 2026-05-06 17:31 | 40.60149 | 48.65222 | 35043 ft | 553 kts | 92° |
| 2026-05-06 17:32 | 40.60374 | 48.75337 | 35045 ft | 552 kts | 92° |
| 2026-05-06 17:32 | 40.60589 | 48.85392 | 35048 ft | 553 kts | 92° |
| 2026-05-06 17:33 | 40.60797 | 48.95522 | 35044 ft | 552 kts | 92° |
| 2026-05-06 17:33 | 40.60997 | 49.05631 | 35041 ft | 553 kts | 92° |
| 2026-05-06 17:34 | 40.61174 | 49.15758 | 35039 ft | 553 kts | 95° |
| 2026-05-06 17:34 | 40.60290 | 49.25666 | 35049 ft | 543 kts | 108° |
| 2026-05-06 17:35 | 40.58731 | 49.35417 | 35042 ft | 545 kts | 107° |
| 2026-05-06 17:35 | 40.57196 | 49.45205 | 35051 ft | 545 kts | 107° |
| 2026-05-06 17:36 | 40.54809 | 49.59859 | 35069 ft | 546 kts | 108° |
| 2026-05-06 17:36 | 40.53197 | 49.69569 | 35058 ft | 546 kts | 108° |
| 2026-05-06 17:37 | 40.51575 | 49.79324 | 35050 ft | 547 kts | 108° |
| 2026-05-06 17:37 | 40.49937 | 49.89130 | 35053 ft | 547 kts | 108° |
| 2026-05-06 17:38 | 40.48303 | 49.98837 | 35050 ft | 547 kts | 109° |
| 2026-05-06 17:38 | 40.46683 | 50.08610 | 35047 ft | 549 kts | 107° |
| 2026-05-06 17:39 | 40.45394 | 50.18542 | 35044 ft | 551 kts | 105° |
| 2026-05-06 17:39 | 40.44118 | 50.28475 | 35045 ft | 551 kts | 105° |
| 2026-05-06 17:40 | 40.42802 | 50.38326 | 35045 ft | 551 kts | 106° |
| 2026-05-06 17:40 | 40.41454 | 50.48237 | 35047 ft | 551 kts | 106° |
| 2026-05-06 17:41 | 40.40099 | 50.58145 | 35055 ft | 551 kts | 106° |
| 2026-05-06 17:41 | 40.38732 | 50.68047 | 35047 ft | 551 kts | 106° |
| 2026-05-06 17:42 | 40.37361 | 50.77935 | 35051 ft | 551 kts | 106° |
| 2026-05-06 17:42 | 40.35993 | 50.87749 | 35052 ft | 550 kts | 106° |
| 2026-05-06 17:43 | 40.34606 | 50.97617 | 35056 ft | 550 kts | 107° |
| 2026-05-06 17:43 | 40.33209 | 51.07493 | 35053 ft | 549 kts | 107° |
| 2026-05-06 17:44 | 40.31804 | 51.17359 | 35524 ft | 551 kts | 107° |
| 2026-05-06 17:44 | 40.31098 | 51.22302 | 35914 ft | 550 kts | 107° |
| 2026-05-06 17:44 | 40.30401 | 51.27166 | 36282 ft | 550 kts | 107° |
| 2026-05-06 17:45 | 40.29690 | 51.32116 | 36649 ft | 550 kts | 107° |
| 2026-05-06 17:45 | 40.28980 | 51.37040 | 36953 ft | 551 kts | 107° |
| 2026-05-06 17:45 | 40.27549 | 51.46917 | 37043 ft | 546 kts | 107° |
| 2026-05-06 17:46 | 40.26132 | 51.56619 | 37045 ft | 548 kts | 107° |
| 2026-05-06 17:46 | 40.24690 | 51.66429 | 37040 ft | 548 kts | 107° |
| 2026-05-06 17:47 | 40.23247 | 51.76217 | 37042 ft | 548 kts | 107° |
| 2026-05-06 17:47 | 40.21792 | 51.86019 | 37038 ft | 547 kts | 107° |
| 2026-05-06 17:48 | 40.20328 | 51.95805 | 37041 ft | 547 kts | 107° |
| 2026-05-06 17:48 | 40.18867 | 52.05525 | 37031 ft | 547 kts | 107° |
| 2026-05-06 17:49 | 40.17387 | 52.15307 | 37028 ft | 547 kts | 107° |
| 2026-05-06 17:49 | 40.15901 | 52.25077 | 37036 ft | 547 kts | 107° |
| 2026-05-06 17:50 | 40.14404 | 52.34852 | 37025 ft | 548 kts | 108° |
| 2026-05-06 17:50 | 40.12907 | 52.44569 | 37015 ft | 548 kts | 108° |
| 2026-05-06 17:51 | 40.11391 | 52.54327 | 37016 ft | 547 kts | 108° |
| 2026-05-06 17:51 | 40.09879 | 52.64023 | 37016 ft | 547 kts | 108° |
| 2026-05-06 17:52 | 40.08354 | 52.73794 | 37007 ft | 547 kts | 108° |
| 2026-05-06 17:52 | 40.06820 | 52.83537 | 37015 ft | 548 kts | 108° |
| 2026-05-06 17:53 | 40.05285 | 52.93219 | 37028 ft | 548 kts | 108° |
| 2026-05-06 17:53 | 40.03533 | 53.02864 | 37020 ft | 540 kts | 116° |
| 2026-05-06 17:54 | 40.00930 | 53.12018 | 37018 ft | 537 kts | 117° |
| 2026-05-06 17:54 | 39.98339 | 53.21167 | 37012 ft | 538 kts | 117° |
| 2026-05-06 17:55 | 39.95742 | 53.30302 | 36998 ft | 538 kts | 118° |
| 2026-05-06 17:55 | 39.93124 | 53.39458 | 36984 ft | 538 kts | 118° |
| 2026-05-06 17:56 | 39.90505 | 53.48589 | 36977 ft | 538 kts | 118° |
| 2026-05-06 17:56 | 39.87892 | 53.57664 | 36975 ft | 538 kts | 118° |
| 2026-05-06 17:57 | 39.85250 | 53.66795 | 36967 ft | 539 kts | 118° |
| 2026-05-06 17:57 | 39.82604 | 53.75930 | 36971 ft | 539 kts | 118° |
| 2026-05-06 17:58 | 39.79947 | 53.85064 | 36987 ft | 540 kts | 118° |
| 2026-05-06 17:58 | 39.77278 | 53.94207 | 36986 ft | 541 kts | 118° |
| 2026-05-06 17:59 | 39.74618 | 54.03292 | 36980 ft | 541 kts | 118° |
| 2026-05-06 17:59 | 39.71930 | 54.12439 | 36977 ft | 541 kts | 118° |
| 2026-05-06 18:00 | 39.69232 | 54.21586 | 36974 ft | 542 kts | 118° |
| 2026-05-06 18:00 | 39.66526 | 54.30724 | 36977 ft | 542 kts | 118° |
| 2026-05-06 18:01 | 39.63825 | 54.39821 | 36985 ft | 543 kts | 118° |
| 2026-05-06 18:01 | 39.61100 | 54.48963 | 36984 ft | 543 kts | 118° |
| 2026-05-06 18:02 | 39.58363 | 54.58112 | 36989 ft | 543 kts | 118° |
| 2026-05-06 18:02 | 39.56088 | 54.65694 | 36984 ft | 543 kts | 118° |
| 2026-05-06 18:03 | 39.53341 | 54.74822 | 36973 ft | 543 kts | 118° |
| 2026-05-06 18:03 | 39.50592 | 54.83947 | 36965 ft | 543 kts | 118° |
| 2026-05-06 18:04 | 39.47848 | 54.93001 | 36966 ft | 543 kts | 118° |
| 2026-05-06 18:04 | 39.45073 | 55.02122 | 36966 ft | 543 kts | 118° |
| 2026-05-06 18:05 | 39.42314 | 55.11167 | 36968 ft | 543 kts | 118° |
| 2026-05-06 18:05 | 39.39527 | 55.20278 | 36964 ft | 544 kts | 118° |
| 2026-05-06 18:06 | 39.36738 | 55.29367 | 36961 ft | 544 kts | 118° |
| 2026-05-06 18:06 | 39.33937 | 55.38465 | 36968 ft | 544 kts | 118° |
| 2026-05-06 18:07 | 39.31143 | 55.47497 | 36967 ft | 544 kts | 118° |
| 2026-05-06 18:07 | 39.28303 | 55.56572 | 36965 ft | 542 kts | 121° |
| 2026-05-06 18:08 | 39.24986 | 55.65245 | 36960 ft | 539 kts | 123° |
| 2026-05-06 18:08 | 39.21659 | 55.73963 | 36969 ft | 540 kts | 123° |
| 2026-05-06 18:09 | 39.18330 | 55.82651 | 36955 ft | 540 kts | 123° |
| 2026-05-06 18:09 | 39.14992 | 55.91317 | 36967 ft | 540 kts | 123° |
| 2026-05-06 18:10 | 39.11659 | 55.99934 | 36964 ft | 539 kts | 123° |
| 2026-05-06 18:10 | 39.08307 | 56.08581 | 36958 ft | 539 kts | 123° |
| 2026-05-06 18:11 | 39.04946 | 56.17223 | 36964 ft | 539 kts | 123° |
| 2026-05-06 18:11 | 39.01581 | 56.25855 | 36951 ft | 539 kts | 123° |
| 2026-05-06 18:12 | 38.98657 | 56.34708 | 36952 ft | 546 kts | 115° |
| 2026-05-06 18:12 | 38.96157 | 56.43926 | 36956 ft | 546 kts | 115° |
| 2026-05-06 18:13 | 38.93628 | 56.53134 | 36948 ft | 545 kts | 115° |
| 2026-05-06 18:13 | 38.91109 | 56.62268 | 36939 ft | 545 kts | 115° |
| 2026-05-06 18:14 | 38.88570 | 56.71443 | 36934 ft | 545 kts | 115° |
| 2026-05-06 18:14 | 38.86025 | 56.80603 | 36927 ft | 545 kts | 115° |
| 2026-05-06 18:15 | 38.83473 | 56.89763 | 36934 ft | 545 kts | 115° |
| 2026-05-06 18:15 | 38.80910 | 56.98919 | 36923 ft | 545 kts | 115° |
| 2026-05-06 18:16 | 38.78343 | 57.08064 | 36909 ft | 545 kts | 115° |
| 2026-05-06 18:16 | 38.75783 | 57.17148 | 36891 ft | 544 kts | 115° |
| 2026-05-06 18:17 | 38.73204 | 57.26280 | 36880 ft | 544 kts | 115° |
| 2026-05-06 18:17 | 38.70617 | 57.35387 | 36870 ft | 544 kts | 115° |
| 2026-05-06 18:18 | 38.68028 | 57.44482 | 36860 ft | 544 kts | 115° |
| 2026-05-06 18:18 | 38.65443 | 57.53531 | 36858 ft | 543 kts | 115° |
| 2026-05-06 18:19 | 38.62837 | 57.62620 | 36843 ft | 543 kts | 115° |
| 2026-05-06 18:19 | 38.59956 | 57.71516 | 36842 ft | 540 kts | 119° |
| 2026-05-06 18:20 | 38.56913 | 57.80231 | 36838 ft | 540 kts | 119° |
| 2026-05-06 18:20 | 38.53850 | 57.89003 | 36833 ft | 540 kts | 119° |
| 2026-05-06 18:21 | 38.50773 | 57.97766 | 36828 ft | 541 kts | 119° |
| 2026-05-06 18:21 | 38.47687 | 58.06532 | 36832 ft | 541 kts | 119° |
| 2026-05-06 18:22 | 38.44594 | 58.15286 | 36832 ft | 541 kts | 119° |
| 2026-05-06 18:22 | 38.41489 | 58.24047 | 36831 ft | 541 kts | 119° |
| 2026-05-06 18:23 | 38.39005 | 58.33148 | 36830 ft | 548 kts | 107° |
| 2026-05-06 18:23 | 38.37171 | 58.42526 | 36823 ft | 548 kts | 108° |
| 2026-05-06 18:24 | 38.35287 | 58.51942 | 36820 ft | 547 kts | 108° |
| 2026-05-06 18:24 | 38.33401 | 58.61342 | 36815 ft | 547 kts | 108° |
| 2026-05-06 18:25 | 38.31509 | 58.70723 | 36809 ft | 547 kts | 108° |
| 2026-05-06 18:25 | 38.29611 | 58.80100 | 36805 ft | 547 kts | 108° |
| 2026-05-06 18:26 | 38.27704 | 58.89486 | 36799 ft | 547 kts | 108° |
| 2026-05-06 18:26 | 38.25791 | 58.98851 | 36797 ft | 547 kts | 108° |
| 2026-05-06 18:27 | 38.23872 | 59.08214 | 36793 ft | 547 kts | 108° |
| 2026-05-06 18:27 | 38.21952 | 59.17522 | 36787 ft | 547 kts | 108° |
| 2026-05-06 18:28 | 38.20017 | 59.26878 | 36793 ft | 547 kts | 108° |
| 2026-05-06 18:28 | 38.18068 | 59.36250 | 36786 ft | 547 kts | 108° |
| 2026-05-06 18:29 | 38.16127 | 59.45551 | 36792 ft | 547 kts | 107° |
| 2026-05-06 18:29 | 38.14169 | 59.54910 | 36787 ft | 547 kts | 108° |
| 2026-05-06 18:30 | 38.12195 | 59.64277 | 36792 ft | 548 kts | 108° |
| 2026-05-06 18:30 | 38.10233 | 59.73550 | 36799 ft | 547 kts | 108° |
| 2026-05-06 18:31 | 38.08247 | 59.82899 | 36802 ft | 547 kts | 108° |
| 2026-05-06 18:31 | 38.06261 | 59.92213 | 36792 ft | 546 kts | 107° |
| 2026-05-06 18:32 | 38.04269 | 60.01521 | 36789 ft | 546 kts | 107° |
| 2026-05-06 18:32 | 38.02283 | 60.10755 | 36800 ft | 544 kts | 108° |
| 2026-05-06 18:33 | 37.99234 | 60.19390 | 36801 ft | 534 kts | 128° |
| 2026-05-06 18:33 | 37.94468 | 60.26512 | 36787 ft | 527 kts | 137° |
| 2026-05-06 18:34 | 37.89498 | 60.33345 | 36794 ft | 527 kts | 137° |
| 2026-05-06 18:34 | 37.84557 | 60.40149 | 36791 ft | 527 kts | 137° |
| 2026-05-06 18:35 | 37.79582 | 60.46975 | 36798 ft | 527 kts | 137° |
| 2026-05-06 18:35 | 37.74607 | 60.53779 | 36808 ft | 527 kts | 137° |
| 2026-05-06 18:36 | 37.69504 | 60.60397 | 36809 ft | 525 kts | 139° |
| 2026-05-06 18:36 | 37.64366 | 60.66896 | 36802 ft | 525 kts | 139° |
| 2026-05-06 18:37 | 37.60082 | 60.72347 | 36813 ft | 526 kts | 139° |
| 2026-05-06 18:37 | 37.54075 | 60.80005 | 36821 ft | 526 kts | 139° |
| 2026-05-06 18:38 | 37.48927 | 60.86575 | 36822 ft | 526 kts | 139° |
| 2026-05-06 18:38 | 37.43781 | 60.93101 | 36817 ft | 525 kts | 139° |
| 2026-05-06 18:39 | 37.38620 | 60.99636 | 36815 ft | 525 kts | 139° |
| 2026-05-06 18:40 | 37.30901 | 61.09392 | 36810 ft | 524 kts | 139° |
| 2026-05-06 18:40 | 37.25779 | 61.15847 | 36811 ft | 524 kts | 139° |
| 2026-05-06 18:41 | 37.20634 | 61.22318 | 36809 ft | 524 kts | 139° |
| 2026-05-06 18:41 | 37.15472 | 61.28789 | 36800 ft | 523 kts | 139° |
| 2026-05-06 18:42 | 37.10314 | 61.35244 | 36803 ft | 523 kts | 139° |
| 2026-05-06 18:42 | 37.05152 | 61.41697 | 36800 ft | 524 kts | 139° |
| 2026-05-06 18:43 | 37.00018 | 61.48092 | 36798 ft | 524 kts | 139° |
| 2026-05-06 18:43 | 36.94838 | 61.54518 | 36817 ft | 524 kts | 139° |
| 2026-05-06 18:44 | 36.89664 | 61.60952 | 36815 ft | 524 kts | 139° |
| 2026-05-06 18:44 | 36.84475 | 61.67378 | 36816 ft | 525 kts | 139° |
| 2026-05-06 18:45 | 36.79310 | 61.73768 | 36827 ft | 526 kts | 139° |
| 2026-05-06 18:45 | 36.74114 | 61.80181 | 36821 ft | 526 kts | 139° |
| 2026-05-06 18:46 | 36.68897 | 61.86611 | 36829 ft | 526 kts | 139° |
| 2026-05-06 18:46 | 36.64554 | 61.91951 | 36826 ft | 527 kts | 139° |
| 2026-05-06 18:47 | 36.58484 | 61.99413 | 36831 ft | 527 kts | 139° |
| 2026-05-06 18:47 | 36.53251 | 62.05821 | 36837 ft | 528 kts | 139° |
| 2026-05-06 18:48 | 36.48869 | 62.11188 | 36838 ft | 528 kts | 139° |
| 2026-05-06 18:48 | 36.43655 | 62.17546 | 36847 ft | 528 kts | 139° |
| 2026-05-06 18:49 | 36.38400 | 62.23939 | 36841 ft | 527 kts | 139° |
| 2026-05-06 18:49 | 36.33149 | 62.30317 | 36845 ft | 527 kts | 139° |
| 2026-05-06 18:50 | 36.27942 | 62.36640 | 36843 ft | 528 kts | 139° |
| 2026-05-06 18:50 | 36.22684 | 62.43008 | 36848 ft | 527 kts | 139° |
| 2026-05-06 18:51 | 36.17423 | 62.49370 | 36848 ft | 527 kts | 139° |
| 2026-05-06 18:51 | 36.12211 | 62.55653 | 36851 ft | 527 kts | 139° |
| 2026-05-06 18:52 | 36.06934 | 62.61996 | 36860 ft | 528 kts | 139° |
| 2026-05-06 18:52 | 36.01647 | 62.68347 | 36862 ft | 529 kts | 139° |
| 2026-05-06 18:53 | 35.96384 | 62.74652 | 36862 ft | 529 kts | 139° |
| 2026-05-06 18:53 | 35.91100 | 62.80989 | 36861 ft | 529 kts | 139° |
| 2026-05-06 18:54 | 35.85781 | 62.87322 | 36865 ft | 530 kts | 139° |
| 2026-05-06 18:54 | 35.80517 | 62.93625 | 36861 ft | 531 kts | 139° |
| 2026-05-06 18:55 | 35.75201 | 62.99938 | 36878 ft | 532 kts | 139° |
| 2026-05-06 18:55 | 35.69859 | 63.06278 | 36882 ft | 532 kts | 139° |
| 2026-05-06 18:56 | 35.64539 | 63.12575 | 36892 ft | 533 kts | 139° |
| 2026-05-06 18:56 | 35.59187 | 63.18922 | 36898 ft | 535 kts | 137° |
| 2026-05-06 18:57 | 35.54469 | 63.26052 | 36903 ft | 538 kts | 129° |
| 2026-05-06 18:57 | 35.49921 | 63.33357 | 36907 ft | 538 kts | 130° |
| 2026-05-06 18:58 | 35.45346 | 63.40650 | 36914 ft | 539 kts | 130° |
| 2026-05-06 18:58 | 35.40787 | 63.47881 | 36931 ft | 539 kts | 130° |
| 2026-05-06 18:59 | 35.36204 | 63.55171 | 36948 ft | 540 kts | 130° |
| 2026-05-06 18:59 | 35.31599 | 63.62465 | 36959 ft | 540 kts | 130° |
| 2026-05-06 19:00 | 35.26987 | 63.69763 | 36996 ft | 541 kts | 130° |
| 2026-05-06 19:00 | 35.22424 | 63.77004 | 37001 ft | 541 kts | 129° |
| 2026-05-06 19:01 | 35.17822 | 63.84293 | 37007 ft | 541 kts | 130° |
| 2026-05-06 19:01 | 35.13219 | 63.91578 | 37030 ft | 541 kts | 129° |
| 2026-05-06 19:02 | 35.08593 | 63.98881 | 37049 ft | 543 kts | 130° |
| 2026-05-06 19:02 | 35.03967 | 64.06161 | 37068 ft | 542 kts | 129° |
| 2026-05-06 19:03 | 34.99331 | 64.13436 | 37071 ft | 543 kts | 129° |
| 2026-05-06 19:03 | 34.94724 | 64.20661 | 37075 ft | 542 kts | 129° |
| 2026-05-06 19:04 | 34.90090 | 64.27912 | 37074 ft | 542 kts | 129° |
| 2026-05-06 19:04 | 34.85456 | 64.35159 | 37089 ft | 542 kts | 130° |
| 2026-05-06 19:05 | 34.80800 | 64.42386 | 37093 ft | 542 kts | 129° |
| 2026-05-06 19:05 | 34.76148 | 64.49623 | 37114 ft | 544 kts | 130° |
| 2026-05-06 19:06 | 34.71462 | 64.56880 | 37108 ft | 545 kts | 130° |
| 2026-05-06 19:06 | 34.66820 | 64.64072 | 37124 ft | 545 kts | 129° |
| 2026-05-06 19:07 | 34.62131 | 64.71324 | 37124 ft | 545 kts | 130° |
| 2026-05-06 19:07 | 34.57431 | 64.78563 | 37132 ft | 546 kts | 130° |
| 2026-05-06 19:08 | 34.52737 | 64.85790 | 37138 ft | 546 kts | 130° |
| 2026-05-06 19:08 | 34.48019 | 64.93028 | 37140 ft | 546 kts | 130° |
| 2026-05-06 19:09 | 34.43295 | 65.00242 | 37145 ft | 546 kts | 130° |
| 2026-05-06 19:09 | 34.38601 | 65.07405 | 37146 ft | 545 kts | 130° |
| 2026-05-06 19:10 | 34.33861 | 65.14620 | 37139 ft | 546 kts | 130° |
| 2026-05-06 19:10 | 34.29125 | 65.21808 | 37135 ft | 546 kts | 130° |
| 2026-05-06 19:11 | 34.24422 | 65.28951 | 37140 ft | 545 kts | 130° |
| 2026-05-06 19:11 | 34.19680 | 65.36125 | 37139 ft | 546 kts | 130° |
| 2026-05-06 19:12 | 34.14913 | 65.43321 | 37141 ft | 547 kts | 130° |
| 2026-05-06 19:12 | 34.10178 | 65.50457 | 37143 ft | 548 kts | 130° |
| 2026-05-06 19:13 | 34.05406 | 65.57639 | 37123 ft | 547 kts | 130° |
| 2026-05-06 19:13 | 34.00644 | 65.64810 | 37115 ft | 548 kts | 130° |
| 2026-05-06 19:14 | 33.95871 | 65.71984 | 37113 ft | 548 kts | 130° |
| 2026-05-06 19:14 | 33.91086 | 65.79160 | 37104 ft | 548 kts | 130° |
| 2026-05-06 19:15 | 33.86296 | 65.86329 | 37095 ft | 549 kts | 130° |
| 2026-05-06 19:15 | 33.81538 | 65.93440 | 37075 ft | 549 kts | 130° |
| 2026-05-06 19:16 | 33.76733 | 66.00597 | 37096 ft | 549 kts | 130° |
| 2026-05-06 19:16 | 33.71922 | 66.07753 | 37050 ft | 550 kts | 130° |
| 2026-05-06 19:17 | 33.67101 | 66.14907 | 37036 ft | 551 kts | 130° |
| 2026-05-06 19:17 | 33.62276 | 66.22046 | 37037 ft | 550 kts | 130° |
| 2026-05-06 19:18 | 33.57492 | 66.29128 | 37017 ft | 549 kts | 130° |
| 2026-05-06 19:18 | 33.52671 | 66.36249 | 37010 ft | 548 kts | 130° |
| 2026-05-06 19:19 | 33.47866 | 66.43334 | 37004 ft | 548 kts | 130° |
| 2026-05-06 19:19 | 33.43038 | 66.50416 | 37006 ft | 549 kts | 130° |
| 2026-05-06 19:20 | 33.38196 | 66.57472 | 37024 ft | 548 kts | 130° |
| 2026-05-06 19:20 | 33.33388 | 66.64489 | 37027 ft | 549 kts | 130° |
| 2026-05-06 19:21 | 33.28519 | 66.71573 | 37042 ft | 551 kts | 130° |
| 2026-05-06 19:21 | 33.23649 | 66.78640 | 37046 ft | 551 kts | 130° |
| 2026-05-06 19:22 | 33.18775 | 66.85713 | 37044 ft | 551 kts | 130° |
| 2026-05-06 19:22 | 33.13879 | 66.92783 | 37053 ft | 552 kts | 130° |
| 2026-05-06 19:23 | 33.08980 | 66.99858 | 37050 ft | 554 kts | 130° |
| 2026-05-06 19:23 | 33.04084 | 67.06911 | 37047 ft | 556 kts | 130° |
| 2026-05-06 19:24 | 32.99141 | 67.14024 | 37028 ft | 556 kts | 130° |
| 2026-05-06 19:24 | 32.94194 | 67.21125 | 36998 ft | 556 kts | 130° |
| 2026-05-06 19:25 | 32.89277 | 67.28171 | 36974 ft | 557 kts | 130° |
| 2026-05-06 19:25 | 32.84310 | 67.35274 | 36958 ft | 557 kts | 130° |
| 2026-05-06 19:26 | 32.79338 | 67.42378 | 36974 ft | 557 kts | 130° |
| 2026-05-06 19:26 | 32.74316 | 67.49397 | 36947 ft | 557 kts | 132° |
| 2026-05-06 19:27 | 32.69160 | 67.56251 | 36914 ft | 556 kts | 133° |
| 2026-05-06 19:27 | 32.64048 | 67.63070 | 36904 ft | 556 kts | 133° |
| 2026-05-06 19:28 | 32.58916 | 67.69935 | 36900 ft | 556 kts | 132° |
| 2026-05-06 19:28 | 32.54651 | 67.75638 | 36892 ft | 555 kts | 132° |
| 2026-05-06 19:29 | 32.48671 | 67.83655 | 36893 ft | 555 kts | 131° |
| 2026-05-06 19:29 | 32.43794 | 67.90705 | 36895 ft | 556 kts | 129° |
| 2026-05-06 19:30 | 32.39701 | 67.96655 | 36906 ft | 557 kts | 130° |
| 2026-05-06 19:30 | 32.34768 | 68.03742 | 36911 ft | 558 kts | 130° |
| 2026-05-06 19:31 | 32.29821 | 68.10828 | 36919 ft | 558 kts | 130° |
| 2026-05-06 19:31 | 32.22417 | 68.21390 | 36920 ft | 559 kts | 130° |
| 2026-05-06 19:32 | 32.17442 | 68.28461 | 36917 ft | 560 kts | 130° |
| 2026-05-06 19:32 | 32.12461 | 68.35542 | 36913 ft | 561 kts | 130° |
| 2026-05-06 19:33 | 32.07464 | 68.42629 | 36908 ft | 562 kts | 130° |
| 2026-05-06 19:33 | 32.02459 | 68.49713 | 36900 ft | 562 kts | 130° |
| 2026-05-06 19:34 | 31.97436 | 68.56804 | 36893 ft | 563 kts | 130° |
| 2026-05-06 19:34 | 31.92440 | 68.63856 | 36888 ft | 564 kts | 130° |
| 2026-05-06 19:35 | 31.87412 | 68.70940 | 36881 ft | 564 kts | 130° |
| 2026-05-06 19:35 | 31.82358 | 68.78032 | 36879 ft | 565 kts | 130° |
| 2026-05-06 19:36 | 31.77339 | 68.85072 | 36870 ft | 564 kts | 130° |
| 2026-05-06 19:36 | 31.72289 | 68.92139 | 36867 ft | 564 kts | 130° |
| 2026-05-06 19:37 | 31.67240 | 68.99193 | 36856 ft | 562 kts | 130° |
| 2026-05-06 19:37 | 31.62332 | 69.06308 | 36855 ft | 563 kts | 128° |
| 2026-05-06 19:38 | 31.57504 | 69.13584 | 36846 ft | 563 kts | 128° |
| 2026-05-06 19:38 | 31.52647 | 69.20808 | 36869 ft | 564 kts | 128° |
| 2026-05-06 19:39 | 31.47770 | 69.28020 | 36848 ft | 564 kts | 128° |
| 2026-05-06 19:39 | 31.42929 | 69.35177 | 36841 ft | 563 kts | 128° |
| 2026-05-06 19:40 | 31.37961 | 69.42265 | 36841 ft | 561 kts | 136° |
| 2026-05-06 19:40 | 31.34996 | 69.45241 | 36838 ft | 559 kts | 147° |
| 2026-05-06 19:40 | 31.31708 | 69.47534 | 36839 ft | 554 kts | 158° |
| 2026-05-06 19:41 | 31.28132 | 69.49127 | 36833 ft | 548 kts | 169° |
| 2026-05-06 19:41 | 31.24414 | 69.49967 | 36836 ft | 541 kts | 179° |
| 2026-05-06 19:41 | 31.16926 | 69.50968 | 36833 ft | 541 kts | 176° |
| 2026-05-06 19:42 | 31.09518 | 69.52503 | 36831 ft | 544 kts | 173° |
| 2026-05-06 19:42 | 31.02086 | 69.54323 | 36835 ft | 545 kts | 173° |
| 2026-05-06 19:43 | 30.94649 | 69.56180 | 36842 ft | 546 kts | 173° |
| 2026-05-06 19:43 | 30.87206 | 69.58030 | 36846 ft | 547 kts | 173° |
| 2026-05-06 19:44 | 30.79799 | 69.59862 | 36847 ft | 547 kts | 173° |
| 2026-05-06 19:44 | 30.72336 | 69.61709 | 36842 ft | 547 kts | 173° |
| 2026-05-06 19:45 | 30.64871 | 69.63547 | 36839 ft | 547 kts | 173° |
| 2026-05-06 19:45 | 30.57442 | 69.65377 | 36830 ft | 547 kts | 173° |
| 2026-05-06 19:46 | 30.49998 | 69.67205 | 36830 ft | 547 kts | 173° |
| 2026-05-06 19:46 | 30.42535 | 69.69038 | 36831 ft | 547 kts | 173° |
| 2026-05-06 19:47 | 30.35079 | 69.70864 | 36823 ft | 547 kts | 173° |
| 2026-05-06 19:47 | 30.27631 | 69.72686 | 36822 ft | 547 kts | 173° |
| 2026-05-06 19:48 | 30.20179 | 69.74625 | 36816 ft | 549 kts | 171° |
| 2026-05-06 19:48 | 30.12784 | 69.76851 | 36816 ft | 549 kts | 170° |
| 2026-05-06 19:49 | 30.05404 | 69.79039 | 36799 ft | 549 kts | 171° |
| 2026-05-06 19:49 | 29.97986 | 69.81202 | 36792 ft | 549 kts | 171° |
| 2026-05-06 19:50 | 29.90554 | 69.83358 | 36785 ft | 550 kts | 171° |
| 2026-05-06 19:50 | 29.83174 | 69.85499 | 36781 ft | 550 kts | 171° |
| 2026-05-06 19:51 | 29.75739 | 69.87650 | 36773 ft | 551 kts | 171° |
| 2026-05-06 19:51 | 29.68294 | 69.89797 | 36755 ft | 551 kts | 171° |
| 2026-05-06 19:52 | 29.60835 | 69.91950 | 36754 ft | 552 kts | 171° |
| 2026-05-06 19:52 | 29.53424 | 69.94086 | 36750 ft | 552 kts | 171° |
| 2026-05-06 19:53 | 29.45975 | 69.96228 | 36735 ft | 552 kts | 171° |
| 2026-05-06 19:53 | 29.38506 | 69.98375 | 36717 ft | 552 kts | 171° |
| 2026-05-06 19:54 | 29.31059 | 70.00510 | 36711 ft | 552 kts | 171° |
| 2026-05-06 19:54 | 29.23598 | 70.02650 | 36702 ft | 552 kts | 171° |
| 2026-05-06 19:55 | 29.16138 | 70.04782 | 36691 ft | 551 kts | 171° |
| 2026-05-06 19:55 | 29.08735 | 70.06895 | 36691 ft | 551 kts | 171° |
| 2026-05-06 19:56 | 29.01288 | 70.09019 | 36680 ft | 551 kts | 171° |
| 2026-05-06 19:56 | 28.93838 | 70.11141 | 36679 ft | 551 kts | 171° |
| 2026-05-06 19:57 | 28.86391 | 70.13254 | 36678 ft | 551 kts | 171° |
| 2026-05-06 19:57 | 28.78931 | 70.15372 | 36682 ft | 552 kts | 172° |
| 2026-05-06 19:58 | 28.71518 | 70.17471 | 36675 ft | 552 kts | 172° |
| 2026-05-06 19:58 | 28.64069 | 70.19578 | 36677 ft | 551 kts | 172° |
| 2026-05-06 19:59 | 28.56608 | 70.21691 | 36676 ft | 551 kts | 172° |
| 2026-05-06 19:59 | 28.49162 | 70.23790 | 36674 ft | 551 kts | 172° |
| 2026-05-06 20:00 | 28.41782 | 70.26118 | 36673 ft | 558 kts | 162° |
| 2026-05-06 20:00 | 28.38303 | 70.28110 | 36667 ft | 565 kts | 151° |
| 2026-05-06 20:00 | 28.35127 | 70.30788 | 36663 ft | 570 kts | 140° |
| 2026-05-06 20:01 | 28.32392 | 70.34045 | 36663 ft | 572 kts | 129° |
| 2026-05-06 20:01 | 28.30166 | 70.37799 | 36660 ft | 573 kts | 118° |
| 2026-05-06 20:01 | 28.28534 | 70.41922 | 36655 ft | 571 kts | 107° |
| 2026-05-06 20:01 | 28.27392 | 70.46227 | 36657 ft | 570 kts | 104° |
| 2026-05-06 20:02 | 28.24794 | 70.54683 | 36659 ft | 572 kts | 111° |
| 2026-05-06 20:02 | 28.21494 | 70.62913 | 36662 ft | 573 kts | 115° |
| 2026-05-06 20:03 | 28.18003 | 70.71046 | 36666 ft | 573 kts | 115° |
| 2026-05-06 20:03 | 28.14504 | 70.79158 | 36661 ft | 573 kts | 115° |
| 2026-05-06 20:04 | 28.11012 | 70.87269 | 36664 ft | 573 kts | 115° |
| 2026-05-06 20:04 | 28.07508 | 70.95392 | 36669 ft | 573 kts | 115° |
| 2026-05-06 20:05 | 28.04012 | 71.03485 | 36666 ft | 572 kts | 115° |
| 2026-05-06 20:05 | 28.00500 | 71.11597 | 36668 ft | 572 kts | 115° |
| 2026-05-06 20:06 | 27.97012 | 71.19636 | 36668 ft | 572 kts | 115° |
| 2026-05-06 20:06 | 27.93495 | 71.27723 | 36668 ft | 572 kts | 115° |
| 2026-05-06 20:07 | 27.89979 | 71.35795 | 36666 ft | 572 kts | 115° |
| 2026-05-06 20:07 | 27.86456 | 71.43866 | 36665 ft | 571 kts | 116° |
| 2026-05-06 20:08 | 27.82815 | 71.51802 | 36671 ft | 571 kts | 117° |
| 2026-05-06 20:08 | 27.79114 | 71.59771 | 36668 ft | 571 kts | 117° |
| 2026-05-06 20:09 | 27.75432 | 71.67737 | 36671 ft | 571 kts | 117° |
| 2026-05-06 20:09 | 27.71759 | 71.75681 | 36668 ft | 571 kts | 117° |
| 2026-05-06 20:10 | 27.68095 | 71.83592 | 36668 ft | 571 kts | 117° |
| 2026-05-06 20:10 | 27.64407 | 71.91538 | 36673 ft | 571 kts | 117° |
| 2026-05-06 20:11 | 27.60719 | 71.99478 | 36669 ft | 571 kts | 117° |
| 2026-05-06 20:11 | 27.57649 | 72.06071 | 36672 ft | 571 kts | 117° |
| 2026-05-06 20:12 | 27.53946 | 72.14000 | 36679 ft | 571 kts | 117° |
| 2026-05-06 20:12 | 27.50236 | 72.21932 | 36681 ft | 571 kts | 117° |
| 2026-05-06 20:13 | 27.46541 | 72.29819 | 36688 ft | 571 kts | 117° |
| 2026-05-06 20:13 | 27.42824 | 72.37743 | 36691 ft | 571 kts | 117° |
| 2026-05-06 20:14 | 27.39108 | 72.45646 | 36690 ft | 571 kts | 117° |
| 2026-05-06 20:14 | 27.35388 | 72.53545 | 36693 ft | 570 kts | 118° |
| 2026-05-06 20:15 | 27.31665 | 72.61434 | 36692 ft | 570 kts | 118° |
| 2026-05-06 20:15 | 27.27969 | 72.69254 | 36694 ft | 569 kts | 118° |
| 2026-05-06 20:16 | 27.24242 | 72.77120 | 36692 ft | 569 kts | 118° |
| 2026-05-06 20:16 | 27.20516 | 72.84976 | 36691 ft | 568 kts | 118° |
| 2026-05-06 20:17 | 27.16820 | 72.92757 | 36692 ft | 568 kts | 118° |
| 2026-05-06 20:17 | 27.13085 | 73.00595 | 36692 ft | 568 kts | 118° |
| 2026-05-06 20:18 | 27.09348 | 73.08425 | 36701 ft | 568 kts | 118° |
| 2026-05-06 20:18 | 27.05638 | 73.16187 | 36707 ft | 568 kts | 118° |
| 2026-05-06 20:19 | 27.01895 | 73.24007 | 36707 ft | 568 kts | 118° |
| 2026-05-06 20:19 | 26.98145 | 73.31821 | 36713 ft | 568 kts | 118° |
| 2026-05-06 20:20 | 26.94415 | 73.39572 | 36715 ft | 568 kts | 118° |
| 2026-05-06 20:20 | 26.90611 | 73.47339 | 36716 ft | 568 kts | 118° |
| 2026-05-06 20:21 | 26.86803 | 73.55105 | 36717 ft | 568 kts | 118° |
| 2026-05-06 20:21 | 26.83001 | 73.62858 | 36716 ft | 568 kts | 118° |
| 2026-05-06 20:22 | 26.79189 | 73.70613 | 36726 ft | 569 kts | 119° |
| 2026-05-06 20:22 | 26.75387 | 73.78330 | 36728 ft | 569 kts | 119° |
| 2026-05-06 20:23 | 26.71558 | 73.86099 | 36736 ft | 569 kts | 119° |
| 2026-05-06 20:23 | 26.67730 | 73.93852 | 36733 ft | 569 kts | 119° |
| 2026-05-06 20:24 | 26.63890 | 74.01614 | 36740 ft | 569 kts | 119° |
| 2026-05-06 20:24 | 26.60042 | 74.09374 | 36737 ft | 569 kts | 119° |
| 2026-05-06 20:25 | 26.56224 | 74.17065 | 36742 ft | 569 kts | 119° |
| 2026-05-06 20:25 | 26.52401 | 74.24822 | 36743 ft | 569 kts | 118° |
| 2026-05-06 20:26 | 26.48612 | 74.32593 | 36752 ft | 569 kts | 119° |
| 2026-05-06 20:26 | 26.44808 | 74.40368 | 36756 ft | 569 kts | 119° |
| 2026-05-06 20:27 | 26.41026 | 74.48068 | 36757 ft | 569 kts | 119° |
| 2026-05-06 20:27 | 26.37219 | 74.55809 | 36761 ft | 568 kts | 119° |
| 2026-05-06 20:28 | 26.33410 | 74.63540 | 36760 ft | 568 kts | 119° |
| 2026-05-06 20:28 | 26.29600 | 74.71257 | 36758 ft | 567 kts | 119° |
| 2026-05-06 20:29 | 26.25816 | 74.78912 | 36758 ft | 567 kts | 119° |
| 2026-05-06 20:29 | 26.22006 | 74.86602 | 36760 ft | 566 kts | 120° |
| 2026-05-06 20:30 | 26.16126 | 74.98043 | 36761 ft | 565 kts | 126° |
| 2026-05-06 20:31 | 26.11733 | 75.05230 | 36756 ft | 565 kts | 125° |
| 2026-05-06 20:31 | 26.07331 | 75.12490 | 36765 ft | 565 kts | 125° |
| 2026-05-06 20:32 | 26.02920 | 75.19744 | 36767 ft | 565 kts | 125° |
| 2026-05-06 20:32 | 25.98533 | 75.26941 | 36770 ft | 565 kts | 125° |
| 2026-05-06 20:33 | 25.94117 | 75.34168 | 36770 ft | 565 kts | 126° |
| 2026-05-06 20:33 | 25.89692 | 75.41404 | 36773 ft | 565 kts | 126° |
| 2026-05-06 20:34 | 25.85173 | 75.48543 | 36773 ft | 564 kts | 129° |
| 2026-05-06 20:34 | 25.80392 | 75.55454 | 36774 ft | 564 kts | 129° |
| 2026-05-06 20:35 | 25.75632 | 75.62375 | 36778 ft | 564 kts | 129° |
| 2026-05-06 20:35 | 25.70923 | 75.69277 | 36780 ft | 564 kts | 129° |
| 2026-05-06 20:36 | 25.66191 | 75.76216 | 36780 ft | 563 kts | 129° |
| 2026-05-06 20:36 | 25.61459 | 75.83144 | 36780 ft | 563 kts | 129° |
| 2026-05-06 20:37 | 25.56744 | 75.90038 | 36778 ft | 563 kts | 129° |
| 2026-05-06 20:37 | 25.52003 | 75.96958 | 36777 ft | 563 kts | 129° |
| 2026-05-06 20:38 | 25.47263 | 76.03869 | 36778 ft | 563 kts | 129° |
| 2026-05-06 20:38 | 25.42513 | 76.10782 | 36778 ft | 563 kts | 129° |
| 2026-05-06 20:39 | 25.37801 | 76.17625 | 36781 ft | 563 kts | 129° |
| 2026-05-06 20:39 | 25.33036 | 76.24538 | 36782 ft | 563 kts | 129° |
| 2026-05-06 20:40 | 25.28278 | 76.31427 | 36792 ft | 563 kts | 130° |
| 2026-05-06 20:40 | 25.23541 | 76.38282 | 36799 ft | 563 kts | 130° |
| 2026-05-06 20:41 | 25.18776 | 76.45169 | 36798 ft | 563 kts | 130° |
| 2026-05-06 20:41 | 25.14018 | 76.52037 | 36800 ft | 563 kts | 130° |
| 2026-05-06 20:42 | 25.09251 | 76.58898 | 36802 ft | 562 kts | 130° |
| 2026-05-06 20:42 | 25.04491 | 76.65748 | 36794 ft | 562 kts | 130° |
| 2026-05-06 20:43 | 24.99704 | 76.72485 | 36802 ft | 559 kts | 135° |
| 2026-05-06 20:43 | 24.94345 | 76.78686 | 36801 ft | 558 kts | 137° |
| 2026-05-06 20:44 | 24.88987 | 76.84891 | 36797 ft | 558 kts | 137° |
| 2026-05-06 20:44 | 24.83661 | 76.91046 | 36800 ft | 558 kts | 137° |
| 2026-05-06 20:45 | 24.78297 | 76.97231 | 36812 ft | 558 kts | 137° |
| 2026-05-06 20:45 | 24.72921 | 77.03423 | 36815 ft | 558 kts | 137° |
| 2026-05-06 20:46 | 24.67586 | 77.09564 | 36816 ft | 558 kts | 137° |
| 2026-05-06 20:46 | 24.62209 | 77.15736 | 36811 ft | 557 kts | 137° |
| 2026-05-06 20:47 | 24.56838 | 77.21893 | 36815 ft | 557 kts | 137° |
| 2026-05-06 20:47 | 24.51470 | 77.28043 | 36826 ft | 557 kts | 137° |
| 2026-05-06 20:48 | 24.46110 | 77.34175 | 36821 ft | 556 kts | 137° |
| 2026-05-06 20:48 | 24.40782 | 77.40264 | 36823 ft | 556 kts | 137° |
| 2026-05-06 20:49 | 24.35417 | 77.46384 | 36824 ft | 556 kts | 137° |
| 2026-05-06 20:49 | 24.30047 | 77.52498 | 36819 ft | 556 kts | 137° |
| 2026-05-06 20:50 | 24.24681 | 77.58606 | 36823 ft | 555 kts | 137° |
| 2026-05-06 20:50 | 24.19318 | 77.64702 | 36822 ft | 555 kts | 138° |
| 2026-05-06 20:51 | 24.13989 | 77.70751 | 36818 ft | 554 kts | 138° |
| 2026-05-06 20:51 | 24.08631 | 77.76826 | 36814 ft | 554 kts | 138° |
| 2026-05-06 20:52 | 24.03274 | 77.82891 | 36820 ft | 554 kts | 138° |
| 2026-05-06 20:52 | 23.97907 | 77.88961 | 36814 ft | 554 kts | 138° |
| 2026-05-06 20:53 | 23.92581 | 77.94972 | 36820 ft | 553 kts | 138° |
| 2026-05-06 20:53 | 23.87212 | 78.01027 | 36819 ft | 553 kts | 138° |
| 2026-05-06 20:54 | 23.81856 | 78.07061 | 36822 ft | 553 kts | 138° |
| 2026-05-06 20:54 | 23.76478 | 78.13109 | 36827 ft | 553 kts | 139° |
| 2026-05-06 20:55 | 23.72054 | 78.18081 | 36825 ft | 553 kts | 139° |
| 2026-05-06 20:55 | 23.66691 | 78.24097 | 36830 ft | 552 kts | 139° |
| 2026-05-06 20:56 | 23.61327 | 78.30109 | 36829 ft | 552 kts | 139° |
| 2026-05-06 20:56 | 23.55089 | 78.37097 | 36831 ft | 551 kts | 139° |
| 2026-05-06 20:57 | 23.50641 | 78.42071 | 36824 ft | 551 kts | 139° |
| 2026-05-06 20:57 | 23.45272 | 78.48072 | 36822 ft | 551 kts | 139° |
| 2026-05-06 20:58 | 23.39912 | 78.54042 | 36826 ft | 551 kts | 139° |
| 2026-05-06 20:58 | 23.34591 | 78.59971 | 36828 ft | 550 kts | 139° |
| 2026-05-06 20:59 | 23.29234 | 78.65933 | 36824 ft | 550 kts | 139° |
| 2026-05-06 20:59 | 23.23873 | 78.71892 | 36812 ft | 550 kts | 139° |
| 2026-05-06 21:00 | 23.18486 | 78.77794 | 36804 ft | 549 kts | 140° |
| 2026-05-06 21:00 | 23.13017 | 78.83580 | 36818 ft | 548 kts | 141° |
| 2026-05-06 21:01 | 23.07550 | 78.89377 | 36819 ft | 548 kts | 140° |
| 2026-05-06 21:01 | 23.02131 | 78.95133 | 36822 ft | 548 kts | 140° |
| 2026-05-06 21:02 | 22.96684 | 79.00927 | 36825 ft | 547 kts | 140° |
| 2026-05-06 21:02 | 22.91242 | 79.06703 | 36823 ft | 547 kts | 140° |
| 2026-05-06 21:03 | 22.85791 | 79.12483 | 36823 ft | 546 kts | 140° |
| 2026-05-06 21:03 | 22.80382 | 79.18212 | 36824 ft | 546 kts | 140° |
| 2026-05-06 21:04 | 22.74951 | 79.23955 | 36827 ft | 545 kts | 141° |
| 2026-05-06 21:04 | 22.69512 | 79.29699 | 36821 ft | 545 kts | 140° |
| 2026-05-06 21:05 | 22.64074 | 79.35432 | 36828 ft | 545 kts | 140° |
| 2026-05-06 21:05 | 22.58645 | 79.41161 | 36833 ft | 545 kts | 140° |
| 2026-05-06 21:06 | 22.53275 | 79.46906 | 36826 ft | 545 kts | 139° |
| 2026-05-06 21:06 | 22.47972 | 79.52799 | 36829 ft | 545 kts | 139° |
| 2026-05-06 21:07 | 22.42703 | 79.58629 | 36835 ft | 545 kts | 139° |
| 2026-05-06 21:07 | 22.37391 | 79.64478 | 36823 ft | 544 kts | 139° |
| 2026-05-06 21:08 | 22.32069 | 79.70323 | 36827 ft | 544 kts | 139° |
| 2026-05-06 21:08 | 22.26789 | 79.76116 | 36827 ft | 544 kts | 139° |
| 2026-05-06 21:09 | 22.21470 | 79.81944 | 36827 ft | 544 kts | 139° |
| 2026-05-06 21:09 | 22.16152 | 79.87766 | 36826 ft | 543 kts | 139° |
| 2026-05-06 21:10 | 22.10838 | 79.93574 | 36827 ft | 543 kts | 139° |
| 2026-05-06 21:10 | 22.05563 | 79.99334 | 36829 ft | 542 kts | 139° |
| 2026-05-06 21:11 | 22.00253 | 80.05126 | 36827 ft | 541 kts | 139° |
| 2026-05-06 21:11 | 21.94954 | 80.10900 | 36828 ft | 540 kts | 139° |
| 2026-05-06 21:12 | 21.89696 | 80.16622 | 36827 ft | 540 kts | 139° |
| 2026-05-06 21:12 | 21.84412 | 80.22367 | 36827 ft | 539 kts | 139° |
| 2026-05-06 21:13 | 21.79121 | 80.28114 | 36825 ft | 538 kts | 139° |
| 2026-05-06 21:13 | 21.73849 | 80.33834 | 36828 ft | 538 kts | 139° |
| 2026-05-06 21:14 | 21.68587 | 80.39534 | 36826 ft | 537 kts | 139° |
| 2026-05-06 21:14 | 21.63356 | 80.45196 | 36831 ft | 537 kts | 139° |
| 2026-05-06 21:15 | 21.58086 | 80.50892 | 36832 ft | 536 kts | 139° |
| 2026-05-06 21:15 | 21.52815 | 80.56586 | 36831 ft | 536 kts | 139° |
| 2026-05-06 21:16 | 21.47559 | 80.62286 | 36828 ft | 536 kts | 139° |
| 2026-05-06 21:16 | 21.42399 | 80.68001 | 36828 ft | 536 kts | 138° |
| 2026-05-06 21:17 | 21.37197 | 80.73750 | 36825 ft | 535 kts | 139° |
| 2026-05-06 21:17 | 21.32004 | 80.79473 | 36822 ft | 535 kts | 138° |
| 2026-05-06 21:18 | 21.26798 | 80.85200 | 36819 ft | 535 kts | 139° |
| 2026-05-06 21:18 | 21.21632 | 80.90874 | 36820 ft | 534 kts | 139° |
| 2026-05-06 21:19 | 21.16442 | 80.96567 | 36817 ft | 534 kts | 139° |
| 2026-05-06 21:19 | 21.11244 | 81.02264 | 36812 ft | 534 kts | 139° |
| 2026-05-06 21:20 | 21.06049 | 81.07955 | 36809 ft | 533 kts | 139° |
| 2026-05-06 21:20 | 21.00852 | 81.13638 | 36809 ft | 533 kts | 139° |
| 2026-05-06 21:21 | 20.95689 | 81.19280 | 36809 ft | 533 kts | 139° |
| 2026-05-06 21:21 | 20.90490 | 81.24952 | 36812 ft | 533 kts | 139° |
| 2026-05-06 21:22 | 20.85280 | 81.30635 | 36815 ft | 533 kts | 139° |
| 2026-05-06 21:22 | 20.80111 | 81.36267 | 36811 ft | 533 kts | 138° |
| 2026-05-06 21:23 | 20.74939 | 81.41964 | 36829 ft | 533 kts | 137° |
| 2026-05-06 21:23 | 20.69828 | 81.47656 | 36830 ft | 533 kts | 138° |
| 2026-05-06 21:24 | 20.64690 | 81.53365 | 36823 ft | 533 kts | 138° |
| 2026-05-06 21:24 | 20.59540 | 81.59065 | 36824 ft | 532 kts | 138° |
| 2026-05-06 21:25 | 20.54399 | 81.64752 | 36810 ft | 532 kts | 138° |
| 2026-05-06 21:25 | 20.49252 | 81.70443 | 36820 ft | 531 kts | 138° |
| 2026-05-06 21:26 | 20.44142 | 81.76085 | 36837 ft | 532 kts | 138° |
| 2026-05-06 21:26 | 20.41566 | 81.78927 | 37223 ft | 531 kts | 138° |
| 2026-05-06 21:26 | 20.39003 | 81.81756 | 37824 ft | 527 kts | 137° |
| 2026-05-06 21:26 | 20.36460 | 81.84561 | 38401 ft | 524 kts | 137° |
| 2026-05-06 21:27 | 20.33926 | 81.87352 | 38730 ft | 525 kts | 137° |
| 2026-05-06 21:27 | 20.28904 | 81.92881 | 38831 ft | 515 kts | 137° |
| 2026-05-06 21:28 | 20.23935 | 81.98343 | 38834 ft | 516 kts | 137° |
| 2026-05-06 21:28 | 20.18944 | 82.03854 | 38836 ft | 515 kts | 137° |
| 2026-05-06 21:29 | 20.13997 | 82.09365 | 38836 ft | 514 kts | 137° |
| 2026-05-06 21:29 | 20.09049 | 82.14866 | 38849 ft | 515 kts | 137° |
| 2026-05-06 21:30 | 20.04125 | 82.20329 | 38852 ft | 514 kts | 137° |
| 2026-05-06 21:30 | 19.99161 | 82.25830 | 38849 ft | 514 kts | 137° |
| 2026-05-06 21:31 | 19.94207 | 82.31316 | 38856 ft | 513 kts | 137° |
| 2026-05-06 21:31 | 19.89284 | 82.36761 | 38851 ft | 512 kts | 137° |
| 2026-05-06 21:32 | 19.84347 | 82.42217 | 38843 ft | 511 kts | 137° |
| 2026-05-06 21:32 | 19.76965 | 82.50364 | 38845 ft | 509 kts | 137° |
| 2026-05-06 21:33 | 19.72052 | 82.55780 | 38836 ft | 508 kts | 137° |
| 2026-05-06 21:33 | 19.67146 | 82.61183 | 38837 ft | 507 kts | 137° |
| 2026-05-06 21:34 | 19.62249 | 82.66572 | 38829 ft | 506 kts | 137° |
| 2026-05-06 21:34 | 19.57362 | 82.71943 | 38830 ft | 506 kts | 137° |
| 2026-05-06 21:35 | 19.52498 | 82.77285 | 38833 ft | 506 kts | 137° |
| 2026-05-06 21:35 | 19.47607 | 82.82652 | 38838 ft | 506 kts | 137° |
| 2026-05-06 21:36 | 19.42709 | 82.88022 | 38849 ft | 506 kts | 137° |
| 2026-05-06 21:36 | 19.37802 | 82.93396 | 38859 ft | 506 kts | 137° |
| 2026-05-06 21:37 | 19.32897 | 82.98763 | 38870 ft | 507 kts | 137° |
| 2026-05-06 21:37 | 19.28027 | 83.04087 | 38875 ft | 506 kts | 137° |
| 2026-05-06 21:38 | 19.23117 | 83.09450 | 38876 ft | 506 kts | 137° |
| 2026-05-06 21:38 | 19.18223 | 83.14790 | 38875 ft | 505 kts | 136° |
| 2026-05-06 21:39 | 19.13342 | 83.20111 | 38870 ft | 505 kts | 136° |
| 2026-05-06 21:39 | 19.08449 | 83.25441 | 38873 ft | 504 kts | 136° |
| 2026-05-06 21:40 | 19.04388 | 83.29861 | 38864 ft | 503 kts | 136° |
| 2026-05-06 21:40 | 18.99502 | 83.35175 | 38850 ft | 503 kts | 136° |
| 2026-05-06 21:41 | 18.94630 | 83.40468 | 38835 ft | 502 kts | 137° |
| 2026-05-06 21:41 | 18.89748 | 83.45762 | 38836 ft | 502 kts | 137° |
| 2026-05-06 21:42 | 18.84897 | 83.51021 | 38829 ft | 503 kts | 137° |
| 2026-05-06 21:42 | 18.79993 | 83.56333 | 38830 ft | 503 kts | 137° |
| 2026-05-06 21:43 | 18.75101 | 83.61628 | 38826 ft | 504 kts | 137° |
| 2026-05-06 21:43 | 18.70231 | 83.66893 | 38832 ft | 504 kts | 137° |
| 2026-05-06 21:44 | 18.65323 | 83.72196 | 38830 ft | 505 kts | 137° |
| 2026-05-06 21:44 | 18.60407 | 83.77501 | 38830 ft | 505 kts | 137° |
| 2026-05-06 21:45 | 18.55499 | 83.82794 | 38830 ft | 505 kts | 137° |
| 2026-05-06 21:45 | 18.50615 | 83.88057 | 38830 ft | 505 kts | 137° |
| 2026-05-06 21:46 | 18.45695 | 83.93353 | 38828 ft | 504 kts | 137° |
| 2026-05-06 21:46 | 18.40790 | 83.98630 | 38823 ft | 504 kts | 137° |
| 2026-05-06 21:47 | 18.35881 | 84.03905 | 38818 ft | 504 kts | 137° |
| 2026-05-06 21:47 | 18.30966 | 84.09182 | 38816 ft | 503 kts | 137° |
| 2026-05-06 21:48 | 18.26078 | 84.14411 | 38818 ft | 503 kts | 137° |
| 2026-05-06 21:48 | 18.21138 | 84.19639 | 38813 ft | 503 kts | 137° |
| 2026-05-06 21:49 | 18.16228 | 84.24834 | 38814 ft | 503 kts | 137° |
| 2026-05-06 21:49 | 18.11289 | 84.30062 | 38812 ft | 503 kts | 137° |
| 2026-05-06 21:50 | 18.06346 | 84.35290 | 38816 ft | 503 kts | 137° |
| 2026-05-06 21:50 | 18.01408 | 84.40508 | 38819 ft | 503 kts | 137° |
| 2026-05-06 21:51 | 17.96466 | 84.45725 | 38823 ft | 503 kts | 137° |
| 2026-05-06 21:51 | 17.91524 | 84.50939 | 38821 ft | 503 kts | 137° |
| 2026-05-06 21:52 | 17.86613 | 84.56117 | 38826 ft | 503 kts | 137° |
| 2026-05-06 21:52 | 17.81667 | 84.61325 | 38823 ft | 503 kts | 137° |
| 2026-05-06 21:53 | 17.76719 | 84.66532 | 38824 ft | 503 kts | 138° |
| 2026-05-06 21:53 | 17.71773 | 84.71733 | 38821 ft | 503 kts | 138° |
| 2026-05-06 21:54 | 17.66834 | 84.76922 | 38819 ft | 502 kts | 138° |
| 2026-05-06 21:54 | 17.61963 | 84.82140 | 38819 ft | 502 kts | 137° |
| 2026-05-06 21:55 | 17.57092 | 84.87402 | 38817 ft | 502 kts | 137° |
| 2026-05-06 21:55 | 17.52213 | 84.92653 | 38817 ft | 502 kts | 137° |
| 2026-05-06 21:56 | 17.47368 | 84.97855 | 38819 ft | 501 kts | 137° |
| 2026-05-06 21:56 | 17.42478 | 85.03102 | 38816 ft | 501 kts | 137° |
| 2026-05-06 21:57 | 17.37609 | 85.08321 | 38815 ft | 501 kts | 137° |
| 2026-05-06 21:57 | 17.32716 | 85.13561 | 38828 ft | 501 kts | 137° |
| 2026-05-06 21:58 | 17.27878 | 85.18739 | 38824 ft | 500 kts | 137° |
| 2026-05-06 21:58 | 17.23003 | 85.23953 | 38815 ft | 500 kts | 137° |
| 2026-05-06 21:59 | 17.18124 | 85.29166 | 38804 ft | 500 kts | 137° |
| 2026-05-06 21:59 | 17.13309 | 85.34449 | 38802 ft | 502 kts | 135° |
| 2026-05-06 22:00 | 17.08650 | 85.39826 | 38795 ft | 502 kts | 135° |
| 2026-05-06 22:00 | 17.03937 | 85.45227 | 38817 ft | 502 kts | 135° |
| 2026-05-06 22:01 | 16.99215 | 85.50603 | 38818 ft | 502 kts | 135° |
| 2026-05-06 22:01 | 16.94480 | 85.55984 | 38817 ft | 502 kts | 135° |
| 2026-05-06 22:02 | 16.89758 | 85.61347 | 38816 ft | 501 kts | 135° |
| 2026-05-06 22:02 | 16.85067 | 85.66670 | 38817 ft | 500 kts | 135° |
| 2026-05-06 22:03 | 16.80362 | 85.72005 | 38817 ft | 499 kts | 135° |
| 2026-05-06 22:03 | 16.75662 | 85.77330 | 38819 ft | 498 kts | 135° |
| 2026-05-06 22:04 | 16.70975 | 85.82636 | 38810 ft | 497 kts | 135° |
| 2026-05-06 22:04 | 16.66288 | 85.87938 | 38815 ft | 496 kts | 135° |
| 2026-05-06 22:05 | 16.61613 | 85.93222 | 38814 ft | 494 kts | 135° |
| 2026-05-06 22:05 | 16.56985 | 85.98450 | 38792 ft | 494 kts | 135° |
| 2026-05-06 22:06 | 16.52315 | 86.03714 | 38789 ft | 492 kts | 135° |
| 2026-05-06 22:06 | 16.47676 | 86.08950 | 38778 ft | 490 kts | 136° |
| 2026-05-06 22:07 | 16.43077 | 86.14125 | 38787 ft | 488 kts | 135° |
| 2026-05-06 22:07 | 16.38474 | 86.19326 | 38761 ft | 486 kts | 136° |
| 2026-05-06 22:08 | 16.33855 | 86.24519 | 38803 ft | 494 kts | 135° |
| 2026-05-06 22:08 | 16.29218 | 86.29749 | 38806 ft | 494 kts | 136° |
| 2026-05-06 22:09 | 16.24527 | 86.34991 | 38806 ft | 496 kts | 135° |
| 2026-05-06 22:09 | 16.19837 | 86.40265 | 38805 ft | 494 kts | 136° |
| 2026-05-06 22:10 | 16.15167 | 86.45500 | 38788 ft | 494 kts | 135° |
| 2026-05-06 22:10 | 16.10487 | 86.50748 | 38798 ft | 494 kts | 135° |
| 2026-05-06 22:11 | 16.05829 | 86.55965 | 38802 ft | 495 kts | 135° |
| 2026-05-06 22:11 | 16.01129 | 86.61227 | 38803 ft | 496 kts | 135° |
| 2026-05-06 22:12 | 15.96433 | 86.66479 | 38813 ft | 496 kts | 135° |
| 2026-05-06 22:12 | 15.91762 | 86.71705 | 38810 ft | 496 kts | 135° |
| 2026-05-06 22:13 | 15.87055 | 86.76959 | 38813 ft | 495 kts | 135° |
| 2026-05-06 22:13 | 15.82349 | 86.82209 | 38812 ft | 495 kts | 135° |
| 2026-05-06 22:14 | 15.77655 | 86.87443 | 38809 ft | 494 kts | 135° |
| 2026-05-06 22:14 | 15.73004 | 86.92627 | 38802 ft | 494 kts | 135° |
| 2026-05-06 22:15 | 15.68324 | 86.97838 | 38805 ft | 493 kts | 135° |
| 2026-05-06 22:15 | 15.63641 | 87.03049 | 38800 ft | 493 kts | 135° |
| 2026-05-06 22:16 | 15.58965 | 87.08248 | 38789 ft | 492 kts | 135° |
| 2026-05-06 22:16 | 15.54292 | 87.13441 | 38791 ft | 492 kts | 135° |
| 2026-05-06 22:17 | 15.49648 | 87.18598 | 38793 ft | 492 kts | 135° |
| 2026-05-06 22:17 | 15.44969 | 87.23789 | 38799 ft | 492 kts | 135° |
| 2026-05-06 22:18 | 15.40295 | 87.28973 | 38796 ft | 491 kts | 135° |
| 2026-05-06 22:18 | 15.35650 | 87.34119 | 38800 ft | 491 kts | 135° |
| 2026-05-06 22:19 | 15.30969 | 87.39302 | 38794 ft | 491 kts | 135° |
| 2026-05-06 22:19 | 15.26290 | 87.44482 | 38802 ft | 491 kts | 135° |
| 2026-05-06 22:20 | 15.21741 | 87.49717 | 38801 ft | 492 kts | 133° |
| 2026-05-06 22:20 | 15.17194 | 87.55027 | 38798 ft | 492 kts | 133° |
| 2026-05-06 22:21 | 15.12640 | 87.60314 | 38794 ft | 492 kts | 134° |
| 2026-05-06 22:21 | 15.08070 | 87.65602 | 38803 ft | 491 kts | 134° |
| 2026-05-06 22:22 | 15.03514 | 87.70870 | 38798 ft | 491 kts | 134° |
| 2026-05-06 22:22 | 14.98977 | 87.76110 | 38800 ft | 491 kts | 133° |
| 2026-05-06 22:23 | 14.94406 | 87.81386 | 38802 ft | 491 kts | 133° |
| 2026-05-06 22:23 | 14.89843 | 87.86650 | 38801 ft | 491 kts | 133° |
| 2026-05-06 22:24 | 14.86051 | 87.91021 | 38795 ft | 491 kts | 133° |
| 2026-05-06 22:24 | 14.81486 | 87.96279 | 38808 ft | 491 kts | 133° |
| 2026-05-06 22:25 | 14.76922 | 88.01535 | 38804 ft | 490 kts | 133° |
| 2026-05-06 22:25 | 14.72367 | 88.06775 | 38807 ft | 490 kts | 133° |
| 2026-05-06 22:26 | 14.67820 | 88.12002 | 38804 ft | 489 kts | 133° |
| 2026-05-06 22:26 | 14.63268 | 88.17232 | 38803 ft | 488 kts | 133° |
| 2026-05-06 22:27 | 14.58753 | 88.22417 | 38802 ft | 487 kts | 133° |
| 2026-05-06 22:27 | 14.54217 | 88.27621 | 38799 ft | 486 kts | 133° |
| 2026-05-06 22:28 | 14.49715 | 88.32783 | 38797 ft | 485 kts | 133° |
| 2026-05-06 22:28 | 14.45198 | 88.37959 | 38799 ft | 485 kts | 133° |
| 2026-05-06 22:29 | 14.40675 | 88.43138 | 38791 ft | 484 kts | 133° |
| 2026-05-06 22:29 | 14.36168 | 88.48295 | 38794 ft | 483 kts | 133° |
| 2026-05-06 22:30 | 14.31696 | 88.53410 | 38793 ft | 483 kts | 133° |
| 2026-05-06 22:30 | 14.27200 | 88.58548 | 38791 ft | 483 kts | 133° |
| 2026-05-06 22:31 | 14.22687 | 88.63703 | 38776 ft | 483 kts | 133° |
| 2026-05-06 22:31 | 14.18183 | 88.68844 | 38789 ft | 483 kts | 133° |
| 2026-05-06 22:32 | 14.13671 | 88.73991 | 38799 ft | 483 kts | 133° |
| 2026-05-06 22:32 | 14.09199 | 88.79089 | 38800 ft | 483 kts | 133° |
| 2026-05-06 22:33 | 14.04684 | 88.84232 | 38789 ft | 484 kts | 133° |
| 2026-05-06 22:33 | 14.00164 | 88.89378 | 38797 ft | 484 kts | 133° |
| 2026-05-06 22:34 | 13.95643 | 88.94523 | 38798 ft | 484 kts | 133° |
| 2026-05-06 22:34 | 13.91114 | 88.99672 | 38802 ft | 485 kts | 133° |
| 2026-05-06 22:35 | 13.86606 | 89.04795 | 38800 ft | 485 kts | 133° |
| 2026-05-06 22:35 | 13.82073 | 89.09943 | 38799 ft | 485 kts | 133° |
| 2026-05-06 22:36 | 13.77527 | 89.15102 | 38797 ft | 486 kts | 133° |
| 2026-05-06 22:36 | 13.72980 | 89.20260 | 38806 ft | 486 kts | 133° |
| 2026-05-06 22:37 | 13.68460 | 89.25384 | 38801 ft | 486 kts | 133° |
| 2026-05-06 22:37 | 13.63913 | 89.30535 | 38798 ft | 486 kts | 133° |
| 2026-05-06 22:38 | 13.59357 | 89.35692 | 38807 ft | 486 kts | 133° |
| 2026-05-06 22:38 | 13.54814 | 89.40832 | 38803 ft | 485 kts | 133° |
| 2026-05-06 22:39 | 13.50304 | 89.45932 | 38799 ft | 485 kts | 133° |
| 2026-05-06 22:39 | 13.45766 | 89.51060 | 38796 ft | 485 kts | 133° |
| 2026-05-06 22:40 | 13.41221 | 89.56193 | 38795 ft | 484 kts | 133° |
| 2026-05-06 22:40 | 13.36686 | 89.61312 | 38803 ft | 484 kts | 133° |
| 2026-05-06 22:41 | 13.29908 | 89.68956 | 38798 ft | 483 kts | 133° |
| 2026-05-06 22:42 | 13.25396 | 89.74041 | 38797 ft | 483 kts | 133° |
| 2026-05-06 22:42 | 13.20870 | 89.79145 | 38795 ft | 483 kts | 133° |
| 2026-05-06 22:43 | 13.16337 | 89.84244 | 38789 ft | 483 kts | 133° |
| 2026-05-06 22:43 | 13.11800 | 89.89346 | 38796 ft | 484 kts | 133° |
| 2026-05-06 22:44 | 13.07245 | 89.94467 | 38799 ft | 484 kts | 133° |
| 2026-05-06 22:44 | 13.02726 | 89.99544 | 38795 ft | 485 kts | 133° |
| 2026-05-06 22:45 | 12.98184 | 90.04645 | 38803 ft | 483 kts | 133° |
| 2026-05-06 22:45 | 12.93659 | 90.09723 | 38805 ft | 482 kts | 133° |
| 2026-05-06 22:46 | 12.89130 | 90.14803 | 38800 ft | 482 kts | 133° |
| 2026-05-06 22:46 | 12.84637 | 90.19840 | 38796 ft | 482 kts | 133° |
| 2026-05-06 22:47 | 12.80112 | 90.24910 | 38794 ft | 482 kts | 133° |
| 2026-05-06 22:47 | 12.75589 | 90.29975 | 38789 ft | 482 kts | 133° |
| 2026-05-06 22:48 | 12.71054 | 90.35050 | 38790 ft | 482 kts | 133° |
| 2026-05-06 22:48 | 12.66539 | 90.40100 | 38787 ft | 484 kts | 133° |
| 2026-05-06 22:49 | 12.61987 | 90.45188 | 38792 ft | 485 kts | 133° |
| 2026-05-06 22:49 | 12.57407 | 90.50306 | 38794 ft | 486 kts | 133° |
| 2026-05-06 22:50 | 12.52851 | 90.55392 | 38800 ft | 487 kts | 133° |
| 2026-05-06 22:50 | 12.48260 | 90.60515 | 38809 ft | 488 kts | 133° |
| 2026-05-06 22:51 | 12.43667 | 90.65638 | 38812 ft | 488 kts | 133° |
| 2026-05-06 22:51 | 12.39075 | 90.70757 | 38814 ft | 488 kts | 133° |
| 2026-05-06 22:52 | 12.34483 | 90.75873 | 38815 ft | 487 kts | 133° |
| 2026-05-06 22:52 | 12.29905 | 90.80971 | 38812 ft | 486 kts | 133° |
| 2026-05-06 22:53 | 12.25327 | 90.86065 | 38810 ft | 485 kts | 133° |
| 2026-05-06 22:53 | 12.20789 | 90.91112 | 38803 ft | 484 kts | 133° |
| 2026-05-06 22:54 | 12.16229 | 90.96181 | 38803 ft | 484 kts | 133° |
| 2026-05-06 22:54 | 12.11668 | 91.01249 | 38799 ft | 483 kts | 133° |
| 2026-05-06 22:55 | 12.07135 | 91.06282 | 38793 ft | 483 kts | 133° |
| 2026-05-06 22:55 | 12.02580 | 91.11337 | 38786 ft | 482 kts | 133° |
| 2026-05-06 22:56 | 11.98057 | 91.16354 | 38784 ft | 482 kts | 133° |
| 2026-05-06 22:56 | 11.93502 | 91.21406 | 38786 ft | 483 kts | 133° |
| 2026-05-06 22:57 | 11.88943 | 91.26459 | 38788 ft | 483 kts | 133° |
| 2026-05-06 22:57 | 11.84288 | 91.31424 | 38796 ft | 484 kts | 136° |
| 2026-05-06 22:58 | 11.79476 | 91.36183 | 38798 ft | 484 kts | 135° |
| 2026-05-06 22:58 | 11.74641 | 91.40999 | 38803 ft | 484 kts | 135° |
| 2026-05-06 22:59 | 11.69814 | 91.45796 | 38808 ft | 484 kts | 135° |
| 2026-05-06 22:59 | 11.64980 | 91.50594 | 38810 ft | 484 kts | 135° |
| 2026-05-06 23:00 | 11.60153 | 91.55382 | 38810 ft | 484 kts | 135° |
| 2026-05-06 23:00 | 11.55348 | 91.60146 | 38806 ft | 484 kts | 135° |
| 2026-05-06 23:01 | 11.50526 | 91.64924 | 38810 ft | 483 kts | 135° |
| 2026-05-06 23:01 | 11.45693 | 91.69710 | 38806 ft | 483 kts | 135° |
| 2026-05-06 23:02 | 11.40874 | 91.74481 | 38804 ft | 483 kts | 135° |
| 2026-05-06 23:02 | 11.36044 | 91.79257 | 38801 ft | 483 kts | 136° |
| 2026-05-06 23:03 | 11.31020 | 91.83736 | 38804 ft | 483 kts | 139° |
| 2026-05-06 23:03 | 11.25937 | 91.88219 | 38802 ft | 483 kts | 138° |
| 2026-05-06 23:04 | 11.20853 | 91.92705 | 38808 ft | 483 kts | 139° |
| 2026-05-06 23:04 | 11.15759 | 91.97194 | 38809 ft | 483 kts | 139° |
| 2026-05-06 23:05 | 11.10669 | 92.01677 | 38817 ft | 483 kts | 139° |
| 2026-05-06 23:05 | 11.05610 | 92.06130 | 38819 ft | 483 kts | 139° |
| 2026-05-06 23:06 | 11.00529 | 92.10600 | 38823 ft | 482 kts | 139° |
| 2026-05-06 23:06 | 10.95449 | 92.15068 | 38819 ft | 481 kts | 139° |
| 2026-05-06 23:07 | 10.90410 | 92.19496 | 38817 ft | 481 kts | 139° |
| 2026-05-06 23:07 | 10.85349 | 92.23942 | 38815 ft | 480 kts | 139° |
| 2026-05-06 23:08 | 10.81142 | 92.27637 | 38806 ft | 480 kts | 139° |
| 2026-05-06 23:08 | 10.76077 | 92.32083 | 38804 ft | 480 kts | 139° |
| 2026-05-06 23:09 | 10.70199 | 92.37241 | 38803 ft | 480 kts | 139° |
| 2026-05-06 23:09 | 10.65965 | 92.40954 | 38809 ft | 480 kts | 139° |
| 2026-05-06 23:10 | 10.60922 | 92.45375 | 38810 ft | 481 kts | 139° |
| 2026-05-06 23:10 | 10.55847 | 92.49819 | 38813 ft | 481 kts | 139° |
| 2026-05-06 23:11 | 10.50770 | 92.54272 | 38823 ft | 482 kts | 139° |
| 2026-05-06 23:11 | 10.45707 | 92.58712 | 38818 ft | 483 kts | 138° |
| 2026-05-06 23:12 | 10.40610 | 92.63170 | 38825 ft | 483 kts | 139° |
| 2026-05-06 23:12 | 10.35511 | 92.67617 | 38818 ft | 483 kts | 139° |
| 2026-05-06 23:13 | 10.30419 | 92.72075 | 38814 ft | 483 kts | 139° |
| 2026-05-06 23:13 | 10.25297 | 92.76527 | 38853 ft | 487 kts | 139° |
| 2026-05-06 23:14 | 10.20189 | 92.81004 | 38861 ft | 486 kts | 139° |
| 2026-05-06 23:14 | 10.15043 | 92.85478 | 38851 ft | 485 kts | 139° |
| 2026-05-06 23:15 | 10.09912 | 92.89955 | 38842 ft | 486 kts | 139° |
| 2026-05-06 23:15 | 10.04794 | 92.94438 | 38855 ft | 486 kts | 139° |
| 2026-05-06 23:16 | 9.99711 | 92.98882 | 38847 ft | 483 kts | 139° |
| 2026-05-06 23:16 | 9.94623 | 93.03322 | 38823 ft | 481 kts | 139° |
| 2026-05-06 23:17 | 9.89542 | 93.07746 | 38813 ft | 481 kts | 139° |
| 2026-05-06 23:17 | 9.84462 | 93.12159 | 38814 ft | 479 kts | 139° |
| 2026-05-06 23:18 | 9.79436 | 93.16540 | 38805 ft | 479 kts | 139° |
| 2026-05-06 23:18 | 9.74362 | 93.20951 | 38805 ft | 479 kts | 139° |
| 2026-05-06 23:19 | 9.69303 | 93.25340 | 38798 ft | 479 kts | 139° |
| 2026-05-06 23:19 | 9.64246 | 93.29747 | 38796 ft | 479 kts | 139° |
| 2026-05-06 23:20 | 9.59207 | 93.34163 | 38834 ft | 482 kts | 139° |
| 2026-05-06 23:20 | 9.54078 | 93.38545 | 38813 ft | 481 kts | 139° |
| 2026-05-06 23:21 | 9.48998 | 93.42965 | 38804 ft | 479 kts | 138° |
| 2026-05-06 23:21 | 9.43931 | 93.47403 | 38806 ft | 482 kts | 139° |
| 2026-05-06 23:22 | 9.38856 | 93.51799 | 38819 ft | 483 kts | 139° |
| 2026-05-06 23:22 | 9.33709 | 93.56256 | 38821 ft | 484 kts | 139° |
| 2026-05-06 23:23 | 9.28618 | 93.60671 | 38836 ft | 485 kts | 139° |
| 2026-05-06 23:23 | 9.23485 | 93.65121 | 38845 ft | 485 kts | 139° |
| 2026-05-06 23:24 | 9.18348 | 93.69571 | 38843 ft | 486 kts | 139° |
| 2026-05-06 23:24 | 9.13214 | 93.74016 | 38838 ft | 485 kts | 139° |
| 2026-05-06 23:25 | 9.08088 | 93.78453 | 38834 ft | 485 kts | 139° |
| 2026-05-06 23:25 | 9.02953 | 93.82896 | 38840 ft | 484 kts | 139° |
| 2026-05-06 23:26 | 8.97863 | 93.87298 | 38840 ft | 484 kts | 139° |
| 2026-05-06 23:26 | 8.92745 | 93.91722 | 38843 ft | 484 kts | 139° |
| 2026-05-06 23:27 | 8.87628 | 93.96156 | 38837 ft | 483 kts | 137° |
| 2026-05-06 23:27 | 8.82999 | 94.01085 | 38830 ft | 482 kts | 128° |
| 2026-05-06 23:28 | 8.79193 | 94.06678 | 38836 ft | 481 kts | 121° |
| 2026-05-06 23:28 | 8.75667 | 94.12391 | 38820 ft | 481 kts | 121° |
| 2026-05-06 23:29 | 8.72102 | 94.18131 | 38818 ft | 481 kts | 121° |
| 2026-05-06 23:29 | 8.68544 | 94.23865 | 38817 ft | 481 kts | 121° |
| 2026-05-06 23:30 | 8.64987 | 94.29598 | 38833 ft | 481 kts | 121° |
| 2026-05-06 23:30 | 8.61454 | 94.35290 | 38831 ft | 481 kts | 121° |
| 2026-05-06 23:31 | 8.57913 | 94.41022 | 38833 ft | 479 kts | 120° |
| 2026-05-06 23:31 | 8.54746 | 94.46952 | 38832 ft | 479 kts | 117° |
| 2026-05-06 23:32 | 8.51637 | 94.52915 | 38829 ft | 479 kts | 117° |
| 2026-05-06 23:32 | 8.48532 | 94.58865 | 38833 ft | 479 kts | 116° |
| 2026-05-06 23:33 | 8.45423 | 94.64772 | 38835 ft | 479 kts | 117° |
| 2026-05-06 23:33 | 8.42321 | 94.70712 | 38824 ft | 477 kts | 117° |
| 2026-05-06 23:34 | 8.39213 | 94.76644 | 38808 ft | 477 kts | 117° |
| 2026-05-06 23:34 | 8.36131 | 94.82530 | 38807 ft | 476 kts | 117° |
| 2026-05-06 23:35 | 8.33032 | 94.88462 | 38829 ft | 478 kts | 116° |
| 2026-05-06 23:35 | 8.29893 | 94.94406 | 38827 ft | 478 kts | 117° |
| 2026-05-06 23:36 | 8.26801 | 95.00302 | 38806 ft | 478 kts | 117° |
| 2026-05-06 23:36 | 8.23672 | 95.06237 | 38822 ft | 479 kts | 117° |
| 2026-05-06 23:37 | 8.20558 | 95.12206 | 38833 ft | 479 kts | 116° |
| 2026-05-06 23:37 | 8.17461 | 95.18166 | 38820 ft | 480 kts | 118° |
| 2026-05-06 23:38 | 8.14328 | 95.24068 | 38822 ft | 480 kts | 118° |
| 2026-05-06 23:38 | 8.11187 | 95.30015 | 38821 ft | 479 kts | 117° |
| 2026-05-06 23:39 | 8.08082 | 95.35978 | 38817 ft | 479 kts | 117° |
| 2026-05-06 23:39 | 8.04955 | 95.41936 | 38830 ft | 482 kts | 117° |
| 2026-05-06 23:40 | 8.01846 | 95.47870 | 38824 ft | 481 kts | 117° |
| 2026-05-06 23:40 | 7.98719 | 95.53843 | 38824 ft | 480 kts | 117° |
| 2026-05-06 23:41 | 7.95557 | 95.59789 | 38804 ft | 480 kts | 117° |
| 2026-05-06 23:41 | 7.92376 | 95.65749 | 38828 ft | 482 kts | 118° |
| 2026-05-06 23:42 | 7.89251 | 95.71686 | 38833 ft | 484 kts | 117° |
| 2026-05-06 23:42 | 7.86100 | 95.77672 | 38813 ft | 480 kts | 118° |
| 2026-05-06 23:43 | 7.82952 | 95.83613 | 38815 ft | 481 kts | 117° |
| 2026-05-06 23:43 | 7.79779 | 95.89571 | 38816 ft | 481 kts | 118° |
| 2026-05-06 23:44 | 7.76629 | 95.95548 | 38822 ft | 483 kts | 117° |
| 2026-05-06 23:44 | 7.73477 | 96.01504 | 38828 ft | 483 kts | 118° |
| 2026-05-06 23:45 | 7.70281 | 96.07493 | 38837 ft | 485 kts | 118° |
| 2026-05-06 23:45 | 7.67094 | 96.13485 | 38825 ft | 483 kts | 117° |
| 2026-05-06 23:46 | 7.63932 | 96.19489 | 38835 ft | 485 kts | 117° |
| 2026-05-06 23:46 | 7.60745 | 96.25483 | 38830 ft | 485 kts | 118° |
| 2026-05-06 23:47 | 7.57556 | 96.31469 | 38821 ft | 484 kts | 117° |
| 2026-05-06 23:47 | 7.54378 | 96.37419 | 38831 ft | 484 kts | 118° |
| 2026-05-06 23:48 | 7.51208 | 96.43420 | 38822 ft | 484 kts | 117° |
| 2026-05-06 23:48 | 7.48020 | 96.49414 | 38813 ft | 484 kts | 118° |
| 2026-05-06 23:49 | 7.44839 | 96.55353 | 38824 ft | 485 kts | 117° |
| 2026-05-06 23:49 | 7.41671 | 96.61366 | 38827 ft | 486 kts | 117° |
| 2026-05-06 23:50 | 7.38476 | 96.67368 | 38830 ft | 486 kts | 118° |
| 2026-05-06 23:50 | 7.33668 | 96.76376 | 38828 ft | 486 kts | 117° |
| 2026-05-06 23:51 | 7.30469 | 96.82381 | 38825 ft | 486 kts | 117° |
| 2026-05-06 23:51 | 7.28043 | 96.87500 | 38829 ft | 486 kts | 111° |
| 2026-05-06 23:52 | 7.26055 | 96.93970 | 38835 ft | 486 kts | 103° |
| 2026-05-06 23:52 | 7.24455 | 97.00589 | 38825 ft | 485 kts | 104° |
| 2026-05-06 23:53 | 7.22840 | 97.07184 | 38817 ft | 484 kts | 104° |
| 2026-05-06 23:53 | 7.21222 | 97.13778 | 38813 ft | 483 kts | 104° |
| 2026-05-06 23:54 | 7.19600 | 97.20302 | 38812 ft | 482 kts | 104° |
| 2026-05-06 23:54 | 7.17967 | 97.26857 | 38801 ft | 484 kts | 103° |
| 2026-05-06 23:55 | 7.16397 | 97.33453 | 38824 ft | 485 kts | 104° |
| 2026-05-06 23:55 | 7.14782 | 97.40069 | 38832 ft | 487 kts | 104° |
| 2026-05-06 23:56 | 7.13177 | 97.46680 | 38823 ft | 486 kts | 103° |
| 2026-05-06 23:56 | 7.11543 | 97.53271 | 38818 ft | 485 kts | 104° |
| 2026-05-06 23:57 | 7.09913 | 97.59825 | 38830 ft | 486 kts | 104° |
| 2026-05-06 23:57 | 7.08273 | 97.66458 | 38833 ft | 487 kts | 104° |
| 2026-05-06 23:58 | 7.06635 | 97.73096 | 38834 ft | 488 kts | 104° |
| 2026-05-06 23:58 | 7.04987 | 97.79686 | 38823 ft | 487 kts | 105° |
| 2026-05-06 23:59 | 7.03355 | 97.86312 | 38828 ft | 488 kts | 104° |
| 2026-05-06 23:59 | 7.03067 | 97.87494 | 38824 ft | 488 kts | 104° |
| 2026-05-07 00:00 | 7.01427 | 97.94202 | 38834 ft | 489 kts | 104° |
| 2026-05-07 00:00 | 6.99680 | 98.00820 | 38834 ft | 488 kts | 109° |
| 2026-05-07 00:01 | 6.97335 | 98.07194 | 38828 ft | 489 kts | 110° |
| 2026-05-07 00:01 | 6.94977 | 98.13640 | 38837 ft | 491 kts | 111° |
| 2026-05-07 00:02 | 6.92606 | 98.20092 | 38841 ft | 490 kts | 110° |
| 2026-05-07 00:02 | 6.90237 | 98.26539 | 38839 ft | 491 kts | 110° |
| 2026-05-07 00:03 | 6.87859 | 98.32981 | 38838 ft | 492 kts | 111° |
| 2026-05-07 00:03 | 6.85480 | 98.39358 | 38821 ft | 489 kts | 110° |
| 2026-05-07 00:04 | 6.83134 | 98.45802 | 38836 ft | 490 kts | 109° |
| 2026-05-07 00:04 | 6.80766 | 98.52230 | 38810 ft | 488 kts | 111° |
| 2026-05-07 00:05 | 6.78401 | 98.58607 | 38812 ft | 488 kts | 110° |
| 2026-05-07 00:05 | 6.76053 | 98.65053 | 38829 ft | 492 kts | 110° |
| 2026-05-07 00:06 | 6.73679 | 98.71513 | 38826 ft | 491 kts | 111° |
| 2026-05-07 00:06 | 6.71272 | 98.77972 | 38855 ft | 494 kts | 111° |
| 2026-05-07 00:07 | 6.68857 | 98.84438 | 38848 ft | 493 kts | 111° |
| 2026-05-07 00:07 | 6.66442 | 98.90864 | 38856 ft | 494 kts | 111° |
| 2026-05-07 00:08 | 6.64056 | 98.97349 | 38837 ft | 491 kts | 110° |
| 2026-05-07 00:08 | 6.61709 | 99.03783 | 38839 ft | 492 kts | 111° |
| 2026-05-07 00:09 | 6.59315 | 99.10267 | 38845 ft | 491 kts | 111° |
| 2026-05-07 00:09 | 6.56925 | 99.16743 | 38841 ft | 491 kts | 111° |
| 2026-05-07 00:10 | 6.54547 | 99.23170 | 38829 ft | 491 kts | 111° |
| 2026-05-07 00:10 | 6.52096 | 99.29584 | 38832 ft | 490 kts | 112° |
| 2026-05-07 00:11 | 6.49750 | 99.35989 | 38838 ft | 490 kts | 110° |
| 2026-05-07 00:11 | 6.47400 | 99.42401 | 38835 ft | 492 kts | 112° |
| 2026-05-07 00:12 | 6.44959 | 99.48798 | 38791 ft | 486 kts | 111° |
| 2026-05-07 00:12 | 6.42585 | 99.55156 | 38788 ft | 487 kts | 110° |
| 2026-05-07 00:13 | 6.40251 | 99.61538 | 38794 ft | 488 kts | 111° |
| 2026-05-07 00:13 | 6.37885 | 99.67963 | 38816 ft | 487 kts | 112° |
| 2026-05-07 00:14 | 6.34822 | 99.73986 | 38817 ft | 489 kts | 123° |
| 2026-05-07 00:14 | 6.30660 | 99.79399 | 38826 ft | 490 kts | 134° |
| 2026-05-07 00:15 | 6.25886 | 99.84294 | 38836 ft | 490 kts | 135° |
| 2026-05-07 00:15 | 6.21083 | 99.89236 | 38867 ft | 494 kts | 135° |
| 2026-05-07 00:16 | 6.16276 | 99.94155 | 38851 ft | 492 kts | 135° |
| 2026-05-07 00:16 | 6.11501 | 99.99026 | 38838 ft | 491 kts | 135° |
| 2026-05-07 00:17 | 6.06701 | 100.03930 | 38832 ft | 491 kts | 135° |
| 2026-05-07 00:17 | 6.01902 | 100.08833 | 38829 ft | 492 kts | 135° |
| 2026-05-07 00:18 | 5.97105 | 100.13736 | 38828 ft | 492 kts | 135° |
| 2026-05-07 00:18 | 5.92302 | 100.18643 | 38828 ft | 492 kts | 135° |
| 2026-05-07 00:19 | 5.87519 | 100.23528 | 38825 ft | 493 kts | 135° |
| 2026-05-07 00:19 | 5.82710 | 100.28437 | 38816 ft | 493 kts | 135° |
| 2026-05-07 00:20 | 5.77891 | 100.33355 | 38819 ft | 493 kts | 134° |
| 2026-05-07 00:20 | 5.73074 | 100.38271 | 38824 ft | 493 kts | 134° |
| 2026-05-07 00:21 | 5.68278 | 100.43163 | 38828 ft | 493 kts | 134° |
| 2026-05-07 00:21 | 5.63459 | 100.48078 | 38832 ft | 493 kts | 134° |
| 2026-05-07 00:22 | 5.58632 | 100.52999 | 38834 ft | 493 kts | 134° |
| 2026-05-07 00:22 | 5.53817 | 100.57908 | 38838 ft | 493 kts | 134° |
| 2026-05-07 00:23 | 5.48982 | 100.62829 | 38840 ft | 493 kts | 134° |
| 2026-05-07 00:23 | 5.44201 | 100.67705 | 38845 ft | 493 kts | 134° |
| 2026-05-07 00:24 | 5.39128 | 100.72319 | 38850 ft | 492 kts | 146° |
| 2026-05-07 00:24 | 5.33002 | 100.75351 | 38841 ft | 493 kts | 162° |
| 2026-05-07 00:25 | 5.26282 | 100.76680 | 38842 ft | 493 kts | 171° |
| 2026-05-07 00:25 | 5.19496 | 100.77756 | 38841 ft | 492 kts | 171° |
| 2026-05-07 00:26 | 5.12768 | 100.78827 | 38841 ft | 492 kts | 171° |
| 2026-05-07 00:26 | 5.05996 | 100.79899 | 38839 ft | 491 kts | 170° |
| 2026-05-07 00:27 | 4.99244 | 100.80968 | 38836 ft | 491 kts | 170° |
| 2026-05-07 00:27 | 4.92498 | 100.82032 | 38829 ft | 491 kts | 170° |
| 2026-05-07 00:28 | 4.85925 | 100.83070 | 38833 ft | 491 kts | 171° |
| 2026-05-07 00:28 | 4.79163 | 100.84138 | 38834 ft | 491 kts | 171° |
| 2026-05-07 00:29 | 4.72441 | 100.85200 | 38840 ft | 491 kts | 171° |
| 2026-05-07 00:30 | 4.58911 | 100.87336 | 38850 ft | 491 kts | 171° |
| 2026-05-07 00:30 | 4.52150 | 100.88404 | 38849 ft | 491 kts | 170° |
| 2026-05-07 00:31 | 4.45508 | 100.90008 | 38849 ft | 490 kts | 161° |
| 2026-05-07 00:31 | 4.39222 | 100.92640 | 38847 ft | 490 kts | 153° |
| 2026-05-07 00:32 | 4.33129 | 100.95626 | 38845 ft | 490 kts | 154° |
| 2026-05-07 00:32 | 4.26994 | 100.98606 | 38836 ft | 490 kts | 154° |
| 2026-05-07 00:33 | 4.20859 | 101.01590 | 38839 ft | 490 kts | 153° |
| 2026-05-07 00:33 | 4.14724 | 101.04576 | 38840 ft | 489 kts | 153° |
| 2026-05-07 00:34 | 4.08677 | 101.07520 | 38840 ft | 490 kts | 153° |
| 2026-05-07 00:34 | 4.03575 | 101.10004 | 38838 ft | 490 kts | 153° |
| 2026-05-07 00:35 | 3.97441 | 101.12989 | 38837 ft | 490 kts | 153° |
| 2026-05-07 00:35 | 3.91308 | 101.15973 | 38840 ft | 490 kts | 153° |
| 2026-05-07 00:36 | 3.85172 | 101.18958 | 38837 ft | 490 kts | 153° |
| 2026-05-07 00:36 | 3.79032 | 101.21945 | 38839 ft | 490 kts | 153° |
| 2026-05-07 00:37 | 3.72960 | 101.24969 | 38842 ft | 489 kts | 152° |
| 2026-05-07 00:37 | 3.66912 | 101.28158 | 38840 ft | 490 kts | 152° |
| 2026-05-07 00:38 | 3.60873 | 101.31324 | 38840 ft | 490 kts | 152° |
| 2026-05-07 00:38 | 3.54865 | 101.34453 | 38846 ft | 490 kts | 152° |
| 2026-05-07 00:39 | 3.48917 | 101.37548 | 38847 ft | 490 kts | 152° |
| 2026-05-07 00:39 | 3.42855 | 101.40701 | 38850 ft | 490 kts | 152° |
| 2026-05-07 00:40 | 3.36890 | 101.43806 | 38847 ft | 491 kts | 152° |
| 2026-05-07 00:40 | 3.30827 | 101.46944 | 38844 ft | 491 kts | 153° |
| 2026-05-07 00:41 | 3.24659 | 101.49781 | 38841 ft | 491 kts | 155° |
| 2026-05-07 00:41 | 3.18410 | 101.52606 | 38836 ft | 491 kts | 155° |
| 2026-05-07 00:42 | 3.12223 | 101.55446 | 38836 ft | 492 kts | 154° |
| 2026-05-07 00:42 | 3.06062 | 101.58289 | 38833 ft | 492 kts | 154° |
| 2026-05-07 00:43 | 2.99822 | 101.61187 | 38837 ft | 492 kts | 154° |
| 2026-05-07 00:43 | 2.93600 | 101.64049 | 38839 ft | 492 kts | 154° |
| 2026-05-07 00:44 | 2.87362 | 101.66918 | 38833 ft | 492 kts | 155° |
| 2026-05-07 00:44 | 2.81183 | 101.69764 | 38831 ft | 492 kts | 154° |
| 2026-05-07 00:45 | 2.74963 | 101.72637 | 38831 ft | 492 kts | 154° |
| 2026-05-07 00:45 | 2.68773 | 101.75534 | 38831 ft | 491 kts | 153° |
| 2026-05-07 00:46 | 2.62653 | 101.78546 | 38828 ft | 490 kts | 153° |
| 2026-05-07 00:46 | 2.56659 | 101.81824 | 38832 ft | 489 kts | 144° |
| 2026-05-07 00:47 | 2.51489 | 101.86217 | 38832 ft | 488 kts | 133° |
| 2026-05-07 00:47 | 2.47255 | 101.91515 | 38842 ft | 487 kts | 126° |
| 2026-05-07 00:48 | 2.43176 | 101.96930 | 38842 ft | 488 kts | 126° |
| 2026-05-07 00:48 | 2.39219 | 102.02171 | 38840 ft | 488 kts | 126° |
| 2026-05-07 00:49 | 2.35132 | 102.07591 | 38848 ft | 488 kts | 126° |
| 2026-05-07 00:49 | 2.31040 | 102.13014 | 38847 ft | 487 kts | 126° |
| 2026-05-07 00:50 | 2.26986 | 102.18437 | 38822 ft | 485 kts | 126° |
| 2026-05-07 00:50 | 2.22923 | 102.23817 | 38840 ft | 486 kts | 127° |
| 2026-05-07 00:51 | 2.18824 | 102.29235 | 38844 ft | 488 kts | 126° |
| 2026-05-07 00:51 | 2.14756 | 102.34633 | 38856 ft | 489 kts | 126° |
| 2026-05-07 00:52 | 2.10663 | 102.40075 | 38854 ft | 489 kts | 126° |
| 2026-05-07 00:52 | 2.08661 | 102.42745 | 38659 ft | 484 kts | 126° |
| 2026-05-07 00:52 | 2.06859 | 102.45131 | 38450 ft | 479 kts | 127° |
| 2026-05-07 00:53 | 2.04840 | 102.47788 | 38188 ft | 481 kts | 126° |
| 2026-05-07 00:53 | 2.02816 | 102.50466 | 37916 ft | 483 kts | 126° |
| 2026-05-07 00:53 | 2.00787 | 102.53158 | 37663 ft | 485 kts | 126° |
| 2026-05-07 00:53 | 1.98762 | 102.55851 | 37092 ft | 485 kts | 126° |
| 2026-05-07 00:54 | 1.96718 | 102.58567 | 36181 ft | 490 kts | 126° |
| 2026-05-07 00:54 | 1.94662 | 102.61299 | 35134 ft | 496 kts | 126° |
| 2026-05-07 00:54 | 1.92590 | 102.64051 | 33997 ft | 505 kts | 126° |
| 2026-05-07 00:54 | 1.90468 | 102.66871 | 33032 ft | 505 kts | 126° |
| 2026-05-07 00:55 | 1.88360 | 102.69670 | 32323 ft | 500 kts | 126° |
| 2026-05-07 00:55 | 1.86279 | 102.72428 | 31869 ft | 490 kts | 126° |
| 2026-05-07 00:55 | 1.84244 | 102.75125 | 31259 ft | 484 kts | 126° |
| 2026-05-07 00:55 | 1.82219 | 102.77813 | 30623 ft | 480 kts | 126° |
| 2026-05-07 00:56 | 1.80217 | 102.80469 | 29987 ft | 476 kts | 126° |
| 2026-05-07 00:56 | 1.78258 | 102.83071 | 29300 ft | 472 kts | 126° |
| 2026-05-07 00:56 | 1.76295 | 102.85676 | 28679 ft | 466 kts | 126° |
| 2026-05-07 00:56 | 1.74366 | 102.88257 | 28051 ft | 460 kts | 124° |
| 2026-05-07 00:57 | 1.72687 | 102.90948 | 27437 ft | 454 kts | 117° |
| 2026-05-07 00:57 | 1.71230 | 102.93735 | 26816 ft | 449 kts | 117° |
| 2026-05-07 00:57 | 1.69773 | 102.96488 | 26210 ft | 445 kts | 117° |
| 2026-05-07 00:57 | 1.68320 | 102.99207 | 25580 ft | 441 kts | 117° |
| 2026-05-07 00:58 | 1.66893 | 103.01882 | 24983 ft | 437 kts | 117° |
| 2026-05-07 00:58 | 1.65468 | 103.04551 | 24371 ft | 433 kts | 117° |
| 2026-05-07 00:58 | 1.64046 | 103.07216 | 23628 ft | 434 kts | 117° |
| 2026-05-07 00:58 | 1.62531 | 103.09794 | 23089 ft | 428 kts | 125° |
| 2026-05-07 00:59 | 1.58077 | 103.13584 | 21915 ft | 422 kts | 152° |
| 2026-05-07 00:59 | 1.55378 | 103.14686 | 21319 ft | 418 kts | 158° |
| 2026-05-07 00:59 | 1.52648 | 103.15674 | 20703 ft | 415 kts | 158° |
| 2026-05-07 01:00 | 1.49952 | 103.16663 | 20107 ft | 411 kts | 158° |
| 2026-05-07 01:00 | 1.47287 | 103.17676 | 19509 ft | 408 kts | 157° |
| 2026-05-07 01:00 | 1.44647 | 103.18705 | 18913 ft | 405 kts | 157° |
| 2026-05-07 01:00 | 1.42070 | 103.19725 | 18332 ft | 402 kts | 156° |
| 2026-05-07 01:01 | 1.39444 | 103.20770 | 17694 ft | 399 kts | 156° |
| 2026-05-07 01:01 | 1.36911 | 103.21779 | 17102 ft | 394 kts | 156° |
| 2026-05-07 01:01 | 1.34372 | 103.22791 | 16510 ft | 389 kts | 156° |
| 2026-05-07 01:01 | 1.31867 | 103.23789 | 15938 ft | 385 kts | 156° |
| 2026-05-07 01:02 | 1.29389 | 103.24776 | 15351 ft | 381 kts | 156° |
| 2026-05-07 01:02 | 1.26932 | 103.25754 | 14784 ft | 377 kts | 156° |
| 2026-05-07 01:02 | 1.24556 | 103.26766 | 14222 ft | 373 kts | 152° |
| 2026-05-07 01:02 | 1.22311 | 103.28039 | 13679 ft | 369 kts | 148° |
| 2026-05-07 01:03 | 1.20112 | 103.29330 | 13202 ft | 362 kts | 148° |
| 2026-05-07 01:03 | 1.17972 | 103.30565 | 13046 ft | 347 kts | 148° |
| 2026-05-07 01:03 | 1.15927 | 103.31746 | 12890 ft | 332 kts | 148° |
| 2026-05-07 01:03 | 1.13960 | 103.32882 | 12781 ft | 319 kts | 148° |
| 2026-05-07 01:04 | 1.12091 | 103.33963 | 12684 ft | 307 kts | 148° |
| 2026-05-07 01:04 | 1.10279 | 103.35013 | 12574 ft | 295 kts | 148° |
| 2026-05-07 01:04 | 1.08529 | 103.36026 | 12469 ft | 284 kts | 148° |
| 2026-05-07 01:04 | 1.06852 | 103.36996 | 12412 ft | 273 kts | 148° |
| 2026-05-07 01:05 | 1.05211 | 103.37944 | 12103 ft | 272 kts | 148° |
| 2026-05-07 01:05 | 1.03575 | 103.38892 | 11797 ft | 272 kts | 148° |
| 2026-05-07 01:05 | 1.01938 | 103.39840 | 11493 ft | 270 kts | 148° |
| 2026-05-07 01:05 | 1.00337 | 103.40766 | 11206 ft | 269 kts | 148° |
| 2026-05-07 01:06 | 0.98728 | 103.41752 | 10899 ft | 267 kts | 139° |
| 2026-05-07 01:06 | 0.97602 | 103.43196 | 10453 ft | 264 kts | 111° |
| 2026-05-07 01:06 | 0.97232 | 103.44956 | 9946 ft | 263 kts | 94° |
| 2026-05-07 01:06 | 0.97123 | 103.46776 | 9428 ft | 262 kts | 93° |
| 2026-05-07 01:07 | 0.97031 | 103.48572 | 9276 ft | 256 kts | 94° |
| 2026-05-07 01:07 | 0.96922 | 103.50359 | 9082 ft | 258 kts | 94° |
| 2026-05-07 01:07 | 0.96796 | 103.52137 | 8860 ft | 253 kts | 95° |
| 2026-05-07 01:07 | 0.96663 | 103.53877 | 8657 ft | 249 kts | 95° |
| 2026-05-07 01:08 | 0.96527 | 103.55596 | 8411 ft | 247 kts | 95° |
| 2026-05-07 01:08 | 0.96466 | 103.57279 | 8182 ft | 244 kts | 87° |
| 2026-05-07 01:08 | 0.96690 | 103.58955 | 7958 ft | 242 kts | 82° |
| 2026-05-07 01:08 | 0.96936 | 103.60612 | 7742 ft | 239 kts | 83° |
| 2026-05-07 01:09 | 0.97165 | 103.62247 | 7504 ft | 237 kts | 83° |
| 2026-05-07 01:09 | 0.97389 | 103.63876 | 7287 ft | 236 kts | 83° |
| 2026-05-07 01:09 | 0.97612 | 103.65500 | 7070 ft | 235 kts | 83° |
| 2026-05-07 01:09 | 0.97836 | 103.67113 | 6843 ft | 234 kts | 83° |
| 2026-05-07 01:10 | 0.98060 | 103.68721 | 6617 ft | 233 kts | 83° |
| 2026-05-07 01:10 | 0.98287 | 103.70323 | 6392 ft | 232 kts | 82° |
| 2026-05-07 01:10 | 0.98729 | 103.71874 | 6164 ft | 234 kts | 66° |
| 2026-05-07 01:10 | 0.99566 | 103.73267 | 5927 ft | 233 kts | 57° |
| 2026-05-07 01:11 | 1.00448 | 103.74595 | 5704 ft | 232 kts | 58° |
| 2026-05-07 01:11 | 1.01319 | 103.75948 | 5466 ft | 231 kts | 59° |
| 2026-05-07 01:11 | 1.02183 | 103.77302 | 5250 ft | 232 kts | 58° |
| 2026-05-07 01:11 | 1.03050 | 103.78657 | 5023 ft | 231 kts | 58° |
| 2026-05-07 01:12 | 1.03919 | 103.80015 | 4785 ft | 232 kts | 58° |
| 2026-05-07 01:12 | 1.04788 | 103.81368 | 4548 ft | 231 kts | 58° |
| 2026-05-07 01:12 | 1.05655 | 103.82718 | 4321 ft | 230 kts | 58° |
| 2026-05-07 01:12 | 1.06523 | 103.84075 | 4090 ft | 231 kts | 58° |
| 2026-05-07 01:13 | 1.07413 | 103.85411 | 4012 ft | 229 kts | 52° |
| 2026-05-07 01:13 | 1.08565 | 103.86424 | 4002 ft | 215 kts | 33° |
| 2026-05-07 01:13 | 1.09836 | 103.87092 | 4006 ft | 196 kts | 25° |
| 2026-05-07 01:13 | 1.11057 | 103.87613 | 3784 ft | 192 kts | 23° |
| 2026-05-07 01:14 | 1.12249 | 103.88114 | 3615 ft | 195 kts | 24° |
| 2026-05-07 01:14 | 1.13495 | 103.88647 | 3426 ft | 194 kts | 24° |
| 2026-05-07 01:14 | 1.14741 | 103.89183 | 3225 ft | 194 kts | 23° |
| 2026-05-07 01:14 | 1.15986 | 103.89704 | 3033 ft | 193 kts | 24° |
| 2026-05-07 01:15 | 1.17220 | 103.90234 | 2840 ft | 191 kts | 24° |
| 2026-05-07 01:15 | 1.18402 | 103.90731 | 2737 ft | 177 kts | 23° |
| 2026-05-07 01:15 | 1.19527 | 103.91214 | 2411 ft | 175 kts | 24° |
| 2026-05-07 01:15 | 1.20619 | 103.91675 | 2337 ft | 172 kts | 24° |
| 2026-05-07 01:16 | 1.21732 | 103.92151 | 2337 ft | 174 kts | 24° |
| 2026-05-07 01:16 | 1.22848 | 103.92625 | 2338 ft | 174 kts | 24° |
| 2026-05-07 01:16 | 1.23962 | 103.93096 | 2287 ft | 174 kts | 24° |
| 2026-05-07 01:16 | 1.25080 | 103.93572 | 2062 ft | 174 kts | 23° |
| 2026-05-07 01:17 | 1.26176 | 103.94036 | 1838 ft | 171 kts | 24° |
| 2026-05-07 01:17 | 1.26918 | 103.94353 | 1693 ft | 171 kts | 24° |
| 2026-05-07 01:17 | 1.28007 | 103.94819 | 1478 ft | 170 kts | 25° |
| 2026-05-07 01:17 | 1.29099 | 103.95284 | 1253 ft | 170 kts | 22° |
| 2026-05-07 01:18 | 1.30495 | 103.95879 | 968 ft | 158 kts | 24° |
| 2026-05-07 01:18 | 1.31455 | 103.96279 | 785 ft | 146 kts | 25° |
| 2026-05-07 01:18 | 1.32063 | 103.96559 | 643 ft | 144 kts | 25° |
| 2026-05-07 01:18 | 1.32982 | 103.96944 | 421 ft | 142 kts | 22° |
| 2026-05-07 01:19 | 1.33895 | 103.97322 | 240 ft | 141 kts | 24° |
| 2026-05-07 01:19 | 1.34797 | 103.97704 | 101 ft | 141 kts | 23° |
| 2026-05-07 01:19 | 1.35655 | 103.98067 | 36 ft | 120 kts | 22° |
| 2026-05-07 01:19 | 1.36279 | 103.98327 | 37 ft | 73 kts | 23° |
| 2026-05-07 01:20 | 1.36627 | 103.98488 | 38 ft | 35 kts | 40° |
| 2026-05-07 01:20 | 1.36751 | 103.98633 | 37 ft | 17 kts | 53° |
| 2026-05-07 01:20 | 1.36803 | 103.98702 | 38 ft | 8 kts | 52° |
| 2026-05-07 01:20 | 1.36833 | 103.98761 | 38 ft | 10 kts | 93° |
| 2026-05-07 01:21 | 1.36809 | 103.98825 | 38 ft | 7 kts | 143° |
| 2026-05-07 01:21 | 1.36782 | 103.98828 | 38 ft | 5 kts | 193° |
| 2026-05-07 01:21 | 1.36736 | 103.98815 | 38 ft | 10 kts | 199° |
| 2026-05-07 01:21 | 1.36652 | 103.98779 | 38 ft | 15 kts | 204° |
| 2026-05-07 01:22 | 1.36611 | 103.98761 | 38 ft | 16 kts | 202° |
| 2026-05-07 01:22 | 1.36491 | 103.98711 | 38 ft | 20 kts | 202° |
| 2026-05-07 01:22 | 1.36358 | 103.98656 | 38 ft | 22 kts | 202° |
| 2026-05-07 01:22 | 1.36212 | 103.98594 | 38 ft | 23 kts | 203° |
| 2026-05-07 01:23 | 1.36057 | 103.98529 | 38 ft | 23 kts | 202° |
| 2026-05-07 01:23 | 1.35945 | 103.98483 | 38 ft | 18 kts | 202° |
| 2026-05-07 01:23 | 1.35824 | 103.98432 | 38 ft | 19 kts | 202° |
| 2026-05-07 01:23 | 1.35711 | 103.98385 | 38 ft | 18 kts | 202° |
| 2026-05-07 01:24 | 1.35595 | 103.98335 | 38 ft | 16 kts | 203° |
| 2026-05-07 01:24 | 1.35561 | 103.98321 | 38 ft | 0 kts | 203° |
| 2026-05-07 01:24 | 1.35541 | 103.98313 | 38 ft | 7 kts | 202° |
| 2026-05-07 01:24 | 1.35479 | 103.98287 | 38 ft | 12 kts | 200° |
| 2026-05-07 01:25 | 1.35404 | 103.98289 | 38 ft | 9 kts | 148° |
| 2026-05-07 01:25 | 1.35384 | 103.98332 | 38 ft | 8 kts | 80° |
| 2026-05-07 01:25 | 1.35403 | 103.98385 | 38 ft | 6 kts | 65° |
| 2026-05-07 01:25 | 1.35416 | 103.98412 | 38 ft | 4 kts | 65° |
| 2026-05-07 01:26 | 1.35425 | 103.98431 | 38 ft | 2 kts | 65° |
| 2026-05-07 01:26 | 1.35425 | 103.98433 | 38 ft | 0 kts | 65° |